<?xml version="1.0" encoding="UTF-8" standalone="no" ?>
<gpx xmlns="http://www.topografix.com/GPX/1/1" xmlns:xsi="http://www.w3.org/2001/XMLSchema-instance" xsi:schemaLocation="http://www.topografix.com/GPX/1/1 http://www.topografix.com/GPX/1/1/gpx.xsd" version="1.1" creator="VisuGPX - https://www.visugpx.com">
  <metadata>
    <name>Randonnée à Villardonnel</name>
    <desc><![CDATA[Randonnée pédestre au départ de Villardonnel]]></desc>
  </metadata>
  <trk>
    <name><![CDATA[Villardonnel]]></name>
    <trkseg>
      <trkpt lat="43.3347" lon="2.31025">
        <ele>358.71</ele>
        <time>2014-06-05T11:57:22Z</time>
      </trkpt>
      <trkpt lat="43.3347" lon="2.31022">
        <ele>362.07</ele>
        <time>2014-06-05T11:57:24Z</time>
      </trkpt>
      <trkpt lat="43.3347" lon="2.31021">
        <ele>362.07</ele>
        <time>2014-06-05T11:57:25Z</time>
      </trkpt>
      <trkpt lat="43.3347" lon="2.3102">
        <ele>362.07</ele>
        <time>2014-06-05T11:57:28Z</time>
      </trkpt>
      <trkpt lat="43.33468" lon="2.31013">
        <ele>361.59</ele>
        <time>2014-06-05T11:57:34Z</time>
      </trkpt>
      <trkpt lat="43.33465" lon="2.30982">
        <ele>362.55</ele>
        <time>2014-06-05T11:57:55Z</time>
      </trkpt>
      <trkpt lat="43.33465" lon="2.30966">
        <ele>362.07</ele>
        <time>2014-06-05T11:58:06Z</time>
      </trkpt>
      <trkpt lat="43.33473" lon="2.30945">
        <ele>362.55</ele>
        <time>2014-06-05T11:58:23Z</time>
      </trkpt>
      <trkpt lat="43.33475" lon="2.30934">
        <ele>363.52</ele>
        <time>2014-06-05T11:58:31Z</time>
      </trkpt>
      <trkpt lat="43.3347" lon="2.30914">
        <ele>362.07</ele>
        <time>2014-06-05T11:58:46Z</time>
      </trkpt>
      <trkpt lat="43.33466" lon="2.30897">
        <ele>361.59</ele>
        <time>2014-06-05T11:58:58Z</time>
      </trkpt>
      <trkpt lat="43.33461" lon="2.30875">
        <ele>360.63</ele>
        <time>2014-06-05T11:59:16Z</time>
      </trkpt>
      <trkpt lat="43.33456" lon="2.30852">
        <ele>358.71</ele>
        <time>2014-06-05T11:59:34Z</time>
      </trkpt>
      <trkpt lat="43.3345" lon="2.30827">
        <ele>356.79</ele>
        <time>2014-06-05T11:59:53Z</time>
      </trkpt>
      <trkpt lat="43.3345" lon="2.30824">
        <ele>356.79</ele>
        <time>2014-06-05T11:59:55Z</time>
      </trkpt>
      <trkpt lat="43.33448" lon="2.30813">
        <ele>356.31</ele>
        <time>2014-06-05T12:00:03Z</time>
      </trkpt>
      <trkpt lat="43.33442" lon="2.30794">
        <ele>355.34</ele>
        <time>2014-06-05T12:00:19Z</time>
      </trkpt>
      <trkpt lat="43.33434" lon="2.30773">
        <ele>354.38</ele>
        <time>2014-06-05T12:00:35Z</time>
      </trkpt>
      <trkpt lat="43.33426" lon="2.30759">
        <ele>353.9</ele>
        <time>2014-06-05T12:00:52Z</time>
      </trkpt>
      <trkpt lat="43.33427" lon="2.30761">
        <ele>353.42</ele>
        <time>2014-06-05T12:01:15Z</time>
      </trkpt>
      <trkpt lat="43.33434" lon="2.30776">
        <ele>354.38</ele>
        <time>2014-06-05T12:01:27Z</time>
      </trkpt>
      <trkpt lat="43.33445" lon="2.308">
        <ele>355.34</ele>
        <time>2014-06-05T12:01:45Z</time>
      </trkpt>
      <trkpt lat="43.3345" lon="2.30827">
        <ele>357.27</ele>
        <time>2014-06-05T12:02:04Z</time>
      </trkpt>
      <trkpt lat="43.33452" lon="2.30832">
        <ele>356.79</ele>
        <time>2014-06-05T12:02:07Z</time>
      </trkpt>
      <trkpt lat="43.33457" lon="2.30856">
        <ele>359.19</ele>
        <time>2014-06-05T12:02:25Z</time>
      </trkpt>
      <trkpt lat="43.33458" lon="2.30865">
        <ele>359.67</ele>
        <time>2014-06-05T12:02:31Z</time>
      </trkpt>
      <trkpt lat="43.33463" lon="2.30883">
        <ele>361.11</ele>
        <time>2014-06-05T12:02:47Z</time>
      </trkpt>
      <trkpt lat="43.33466" lon="2.30888">
        <ele>361.11</ele>
        <time>2014-06-05T12:02:52Z</time>
      </trkpt>
      <trkpt lat="43.3348" lon="2.30884">
        <ele>364</ele>
        <time>2014-06-05T12:03:06Z</time>
      </trkpt>
      <trkpt lat="43.33497" lon="2.30876">
        <ele>364.48</ele>
        <time>2014-06-05T12:03:23Z</time>
      </trkpt>
      <trkpt lat="43.33514" lon="2.30874">
        <ele>366.4</ele>
        <time>2014-06-05T12:03:40Z</time>
      </trkpt>
      <trkpt lat="43.33518" lon="2.30872">
        <ele>366.88</ele>
        <time>2014-06-05T12:03:55Z</time>
      </trkpt>
      <trkpt lat="43.3352" lon="2.30866">
        <ele>366.4</ele>
        <time>2014-06-05T12:04:05Z</time>
      </trkpt>
      <trkpt lat="43.33519" lon="2.30835">
        <ele>365.92</ele>
        <time>2014-06-05T12:04:25Z</time>
      </trkpt>
      <trkpt lat="43.3352" lon="2.30809">
        <ele>365.44</ele>
        <time>2014-06-05T12:04:42Z</time>
      </trkpt>
      <trkpt lat="43.33518" lon="2.30788">
        <ele>365.44</ele>
        <time>2014-06-05T12:04:56Z</time>
      </trkpt>
      <trkpt lat="43.33518" lon="2.30787">
        <ele>365.44</ele>
        <time>2014-06-05T12:04:57Z</time>
      </trkpt>
      <trkpt lat="43.33516" lon="2.30768">
        <ele>365.44</ele>
        <time>2014-06-05T12:05:13Z</time>
      </trkpt>
      <trkpt lat="43.33516" lon="2.30742">
        <ele>364.96</ele>
        <time>2014-06-05T12:05:32Z</time>
      </trkpt>
      <trkpt lat="43.33516" lon="2.30734">
        <ele>364.96</ele>
        <time>2014-06-05T12:05:38Z</time>
      </trkpt>
      <trkpt lat="43.33514" lon="2.30727">
        <ele>364.48</ele>
        <time>2014-06-05T12:05:53Z</time>
      </trkpt>
      <trkpt lat="43.33514" lon="2.30727">
        <ele>364.48</ele>
        <time>2014-06-05T12:06:10Z</time>
      </trkpt>
      <trkpt lat="43.33514" lon="2.30725">
        <ele>364.48</ele>
        <time>2014-06-05T12:06:31Z</time>
      </trkpt>
      <trkpt lat="43.33513" lon="2.30725">
        <ele>364.48</ele>
        <time>2014-06-05T12:06:54Z</time>
      </trkpt>
      <trkpt lat="43.33516" lon="2.30728">
        <ele>365.44</ele>
        <time>2014-06-05T12:07:21Z</time>
      </trkpt>
      <trkpt lat="43.33514" lon="2.30729">
        <ele>364</ele>
        <time>2014-06-05T12:07:38Z</time>
      </trkpt>
      <trkpt lat="43.33516" lon="2.30726">
        <ele>364.96</ele>
        <time>2014-06-05T12:07:56Z</time>
      </trkpt>
      <trkpt lat="43.33515" lon="2.30722">
        <ele>364.48</ele>
        <time>2014-06-05T12:08:22Z</time>
      </trkpt>
      <trkpt lat="43.33512" lon="2.30697">
        <ele>363.52</ele>
        <time>2014-06-05T12:08:39Z</time>
      </trkpt>
      <trkpt lat="43.33505" lon="2.3067">
        <ele>362.07</ele>
        <time>2014-06-05T12:08:58Z</time>
      </trkpt>
      <trkpt lat="43.33499" lon="2.30647">
        <ele>361.11</ele>
        <time>2014-06-05T12:09:14Z</time>
      </trkpt>
      <trkpt lat="43.33495" lon="2.30634">
        <ele>360.15</ele>
        <time>2014-06-05T12:09:24Z</time>
      </trkpt>
      <trkpt lat="43.33494" lon="2.30632">
        <ele>360.15</ele>
        <time>2014-06-05T12:09:26Z</time>
      </trkpt>
      <trkpt lat="43.33489" lon="2.30609">
        <ele>359.19</ele>
        <time>2014-06-05T12:09:42Z</time>
      </trkpt>
      <trkpt lat="43.33484" lon="2.3059">
        <ele>357.75</ele>
        <time>2014-06-05T12:09:57Z</time>
      </trkpt>
      <trkpt lat="43.33478" lon="2.30569">
        <ele>356.31</ele>
        <time>2014-06-05T12:10:13Z</time>
      </trkpt>
      <trkpt lat="43.33471" lon="2.30556">
        <ele>355.83</ele>
        <time>2014-06-05T12:10:25Z</time>
      </trkpt>
      <trkpt lat="43.33453" lon="2.30546">
        <ele>355.34</ele>
        <time>2014-06-05T12:10:44Z</time>
      </trkpt>
      <trkpt lat="43.33436" lon="2.30543">
        <ele>355.34</ele>
        <time>2014-06-05T12:11:00Z</time>
      </trkpt>
      <trkpt lat="43.33417" lon="2.30537">
        <ele>355.34</ele>
        <time>2014-06-05T12:11:18Z</time>
      </trkpt>
      <trkpt lat="43.33399" lon="2.30534">
        <ele>354.38</ele>
        <time>2014-06-05T12:11:36Z</time>
      </trkpt>
      <trkpt lat="43.3339" lon="2.30531">
        <ele>354.38</ele>
        <time>2014-06-05T12:11:44Z</time>
      </trkpt>
      <trkpt lat="43.33376" lon="2.30523">
        <ele>353.9</ele>
        <time>2014-06-05T12:11:59Z</time>
      </trkpt>
      <trkpt lat="43.33372" lon="2.30521">
        <ele>353.42</ele>
        <time>2014-06-05T12:12:03Z</time>
      </trkpt>
      <trkpt lat="43.33369" lon="2.30509">
        <ele>353.9</ele>
        <time>2014-06-05T12:12:12Z</time>
      </trkpt>
      <trkpt lat="43.33368" lon="2.30504">
        <ele>353.42</ele>
        <time>2014-06-05T12:12:16Z</time>
      </trkpt>
      <trkpt lat="43.33368" lon="2.3048">
        <ele>353.9</ele>
        <time>2014-06-05T12:12:32Z</time>
      </trkpt>
      <trkpt lat="43.3337" lon="2.30453">
        <ele>354.38</ele>
        <time>2014-06-05T12:12:50Z</time>
      </trkpt>
      <trkpt lat="43.33374" lon="2.30428">
        <ele>354.38</ele>
        <time>2014-06-05T12:13:08Z</time>
      </trkpt>
      <trkpt lat="43.33377" lon="2.304">
        <ele>355.34</ele>
        <time>2014-06-05T12:13:27Z</time>
      </trkpt>
      <trkpt lat="43.33379" lon="2.30378">
        <ele>355.34</ele>
        <time>2014-06-05T12:13:42Z</time>
      </trkpt>
      <trkpt lat="43.33379" lon="2.30358">
        <ele>354.86</ele>
        <time>2014-06-05T12:13:55Z</time>
      </trkpt>
      <trkpt lat="43.33379" lon="2.30337">
        <ele>356.31</ele>
        <time>2014-06-05T12:14:09Z</time>
      </trkpt>
      <trkpt lat="43.33379" lon="2.30321">
        <ele>354.86</ele>
        <time>2014-06-05T12:14:24Z</time>
      </trkpt>
      <trkpt lat="43.3338" lon="2.30316">
        <ele>353.9</ele>
        <time>2014-06-05T12:14:37Z</time>
      </trkpt>
      <trkpt lat="43.3338" lon="2.30317">
        <ele>353.9</ele>
        <time>2014-06-05T12:14:48Z</time>
      </trkpt>
      <trkpt lat="43.3338" lon="2.30318">
        <ele>353.42</ele>
        <time>2014-06-05T12:15:03Z</time>
      </trkpt>
      <trkpt lat="43.3338" lon="2.30318">
        <ele>353.9</ele>
        <time>2014-06-05T12:15:25Z</time>
      </trkpt>
      <trkpt lat="43.33379" lon="2.30318">
        <ele>353.42</ele>
        <time>2014-06-05T12:15:48Z</time>
      </trkpt>
      <trkpt lat="43.33379" lon="2.30317">
        <ele>353.42</ele>
        <time>2014-06-05T12:16:13Z</time>
      </trkpt>
      <trkpt lat="43.33379" lon="2.30318">
        <ele>352.94</ele>
        <time>2014-06-05T12:16:36Z</time>
      </trkpt>
      <trkpt lat="43.33377" lon="2.30313">
        <ele>355.34</ele>
        <time>2014-06-05T12:16:58Z</time>
      </trkpt>
      <trkpt lat="43.33376" lon="2.30296">
        <ele>354.86</ele>
        <time>2014-06-05T12:17:13Z</time>
      </trkpt>
      <trkpt lat="43.33374" lon="2.30285">
        <ele>354.38</ele>
        <time>2014-06-05T12:17:30Z</time>
      </trkpt>
      <trkpt lat="43.33372" lon="2.30261">
        <ele>354.38</ele>
        <time>2014-06-05T12:17:48Z</time>
      </trkpt>
      <trkpt lat="43.33368" lon="2.30237">
        <ele>354.38</ele>
        <time>2014-06-05T12:18:04Z</time>
      </trkpt>
      <trkpt lat="43.33361" lon="2.30211">
        <ele>353.42</ele>
        <time>2014-06-05T12:18:23Z</time>
      </trkpt>
      <trkpt lat="43.33356" lon="2.30189">
        <ele>352.94</ele>
        <time>2014-06-05T12:18:38Z</time>
      </trkpt>
      <trkpt lat="43.33352" lon="2.30168">
        <ele>352.46</ele>
        <time>2014-06-05T12:18:53Z</time>
      </trkpt>
      <trkpt lat="43.33349" lon="2.30143">
        <ele>351.5</ele>
        <time>2014-06-05T12:19:10Z</time>
      </trkpt>
      <trkpt lat="43.33348" lon="2.30121">
        <ele>351.98</ele>
        <time>2014-06-05T12:19:25Z</time>
      </trkpt>
      <trkpt lat="43.33348" lon="2.301">
        <ele>350.54</ele>
        <time>2014-06-05T12:19:40Z</time>
      </trkpt>
      <trkpt lat="43.33351" lon="2.30079">
        <ele>350.54</ele>
        <time>2014-06-05T12:19:55Z</time>
      </trkpt>
      <trkpt lat="43.33353" lon="2.30057">
        <ele>350.54</ele>
        <time>2014-06-05T12:20:10Z</time>
      </trkpt>
      <trkpt lat="43.33351" lon="2.30038">
        <ele>351.02</ele>
        <time>2014-06-05T12:20:24Z</time>
      </trkpt>
      <trkpt lat="43.33348" lon="2.30014">
        <ele>351.02</ele>
        <time>2014-06-05T12:20:40Z</time>
      </trkpt>
      <trkpt lat="43.33343" lon="2.29991">
        <ele>351.02</ele>
        <time>2014-06-05T12:20:55Z</time>
      </trkpt>
      <trkpt lat="43.33337" lon="2.2997">
        <ele>351.02</ele>
        <time>2014-06-05T12:21:10Z</time>
      </trkpt>
      <trkpt lat="43.33331" lon="2.29946">
        <ele>352.94</ele>
        <time>2014-06-05T12:21:29Z</time>
      </trkpt>
      <trkpt lat="43.33327" lon="2.29947">
        <ele>352.46</ele>
        <time>2014-06-05T12:21:41Z</time>
      </trkpt>
      <trkpt lat="43.33329" lon="2.29948">
        <ele>352.94</ele>
        <time>2014-06-05T12:21:55Z</time>
      </trkpt>
      <trkpt lat="43.3333" lon="2.29948">
        <ele>351.5</ele>
        <time>2014-06-05T12:22:11Z</time>
      </trkpt>
      <trkpt lat="43.33329" lon="2.29948">
        <ele>352.94</ele>
        <time>2014-06-05T12:22:31Z</time>
      </trkpt>
      <trkpt lat="43.3333" lon="2.29947">
        <ele>353.42</ele>
        <time>2014-06-05T12:22:49Z</time>
      </trkpt>
      <trkpt lat="43.33332" lon="2.2994">
        <ele>353.42</ele>
        <time>2014-06-05T12:23:00Z</time>
      </trkpt>
      <trkpt lat="43.33328" lon="2.29927">
        <ele>352.94</ele>
        <time>2014-06-05T12:23:09Z</time>
      </trkpt>
      <trkpt lat="43.33321" lon="2.29904">
        <ele>352.94</ele>
        <time>2014-06-05T12:23:26Z</time>
      </trkpt>
      <trkpt lat="43.33312" lon="2.29879">
        <ele>352.46</ele>
        <time>2014-06-05T12:23:44Z</time>
      </trkpt>
      <trkpt lat="43.33305" lon="2.29858">
        <ele>352.46</ele>
        <time>2014-06-05T12:24:00Z</time>
      </trkpt>
      <trkpt lat="43.33297" lon="2.29838">
        <ele>351.5</ele>
        <time>2014-06-05T12:24:16Z</time>
      </trkpt>
      <trkpt lat="43.33289" lon="2.29819">
        <ele>350.54</ele>
        <time>2014-06-05T12:24:33Z</time>
      </trkpt>
      <trkpt lat="43.33287" lon="2.29816">
        <ele>350.54</ele>
        <time>2014-06-05T12:24:36Z</time>
      </trkpt>
      <trkpt lat="43.33281" lon="2.29808">
        <ele>350.06</ele>
        <time>2014-06-05T12:24:49Z</time>
      </trkpt>
      <trkpt lat="43.33277" lon="2.29799">
        <ele>348.62</ele>
        <time>2014-06-05T12:25:00Z</time>
      </trkpt>
      <trkpt lat="43.33274" lon="2.29788">
        <ele>348.13</ele>
        <time>2014-06-05T12:25:13Z</time>
      </trkpt>
      <trkpt lat="43.33269" lon="2.29776">
        <ele>346.69</ele>
        <time>2014-06-05T12:25:29Z</time>
      </trkpt>
      <trkpt lat="43.33266" lon="2.2977">
        <ele>346.69</ele>
        <time>2014-06-05T12:25:43Z</time>
      </trkpt>
      <trkpt lat="43.33266" lon="2.29769">
        <ele>346.21</ele>
        <time>2014-06-05T12:26:06Z</time>
      </trkpt>
      <trkpt lat="43.33264" lon="2.29766">
        <ele>346.21</ele>
        <time>2014-06-05T12:26:13Z</time>
      </trkpt>
      <trkpt lat="43.33259" lon="2.29749">
        <ele>344.29</ele>
        <time>2014-06-05T12:26:29Z</time>
      </trkpt>
      <trkpt lat="43.33257" lon="2.29741">
        <ele>343.81</ele>
        <time>2014-06-05T12:26:44Z</time>
      </trkpt>
      <trkpt lat="43.33263" lon="2.29748">
        <ele>344.77</ele>
        <time>2014-06-05T12:27:00Z</time>
      </trkpt>
      <trkpt lat="43.33267" lon="2.29748">
        <ele>345.73</ele>
        <time>2014-06-05T12:27:21Z</time>
      </trkpt>
      <trkpt lat="43.33272" lon="2.29744">
        <ele>345.25</ele>
        <time>2014-06-05T12:27:41Z</time>
      </trkpt>
      <trkpt lat="43.33276" lon="2.2974">
        <ele>345.73</ele>
        <time>2014-06-05T12:27:59Z</time>
      </trkpt>
      <trkpt lat="43.33271" lon="2.29736">
        <ele>345.73</ele>
        <time>2014-06-05T12:28:17Z</time>
      </trkpt>
      <trkpt lat="43.33266" lon="2.29737">
        <ele>345.73</ele>
        <time>2014-06-05T12:28:33Z</time>
      </trkpt>
      <trkpt lat="43.3327" lon="2.29738">
        <ele>345.25</ele>
        <time>2014-06-05T12:28:55Z</time>
      </trkpt>
      <trkpt lat="43.33269" lon="2.29739">
        <ele>345.25</ele>
        <time>2014-06-05T12:29:16Z</time>
      </trkpt>
      <trkpt lat="43.33273" lon="2.29732">
        <ele>344.77</ele>
        <time>2014-06-05T12:29:36Z</time>
      </trkpt>
      <trkpt lat="43.33273" lon="2.29736">
        <ele>345.25</ele>
        <time>2014-06-05T12:30:02Z</time>
      </trkpt>
      <trkpt lat="43.33271" lon="2.29739">
        <ele>345.73</ele>
        <time>2014-06-05T12:30:17Z</time>
      </trkpt>
      <trkpt lat="43.33274" lon="2.29742">
        <ele>345.73</ele>
        <time>2014-06-05T12:30:34Z</time>
      </trkpt>
      <trkpt lat="43.3327" lon="2.29744">
        <ele>344.77</ele>
        <time>2014-06-05T12:30:53Z</time>
      </trkpt>
      <trkpt lat="43.33269" lon="2.29743">
        <ele>345.25</ele>
        <time>2014-06-05T12:31:20Z</time>
      </trkpt>
      <trkpt lat="43.3327" lon="2.29738">
        <ele>345.25</ele>
        <time>2014-06-05T12:31:41Z</time>
      </trkpt>
      <trkpt lat="43.33273" lon="2.29733">
        <ele>345.25</ele>
        <time>2014-06-05T12:31:57Z</time>
      </trkpt>
      <trkpt lat="43.33274" lon="2.29734">
        <ele>344.29</ele>
        <time>2014-06-05T12:32:18Z</time>
      </trkpt>
      <trkpt lat="43.33275" lon="2.29733">
        <ele>345.25</ele>
        <time>2014-06-05T12:32:33Z</time>
      </trkpt>
      <trkpt lat="43.33273" lon="2.29733">
        <ele>345.73</ele>
        <time>2014-06-05T12:32:53Z</time>
      </trkpt>
      <trkpt lat="43.33274" lon="2.29734">
        <ele>345.25</ele>
        <time>2014-06-05T12:33:13Z</time>
      </trkpt>
      <trkpt lat="43.33274" lon="2.29735">
        <ele>344.77</ele>
        <time>2014-06-05T12:33:37Z</time>
      </trkpt>
      <trkpt lat="43.33273" lon="2.29734">
        <ele>344.29</ele>
        <time>2014-06-05T12:34:00Z</time>
      </trkpt>
      <trkpt lat="43.33273" lon="2.29735">
        <ele>344.29</ele>
        <time>2014-06-05T12:34:28Z</time>
      </trkpt>
      <trkpt lat="43.33273" lon="2.29734">
        <ele>344.77</ele>
        <time>2014-06-05T12:35:01Z</time>
      </trkpt>
      <trkpt lat="43.33268" lon="2.2974">
        <ele>345.25</ele>
        <time>2014-06-05T12:35:18Z</time>
      </trkpt>
      <trkpt lat="43.33259" lon="2.29747">
        <ele>344.77</ele>
        <time>2014-06-05T12:35:33Z</time>
      </trkpt>
      <trkpt lat="43.33255" lon="2.29736">
        <ele>343.33</ele>
        <time>2014-06-05T12:35:50Z</time>
      </trkpt>
      <trkpt lat="43.33251" lon="2.29719">
        <ele>342.37</ele>
        <time>2014-06-05T12:36:06Z</time>
      </trkpt>
      <trkpt lat="43.33246" lon="2.29708">
        <ele>340.92</ele>
        <time>2014-06-05T12:36:19Z</time>
      </trkpt>
      <trkpt lat="43.33241" lon="2.297">
        <ele>339.96</ele>
        <time>2014-06-05T12:36:32Z</time>
      </trkpt>
      <trkpt lat="43.33236" lon="2.29692">
        <ele>339.48</ele>
        <time>2014-06-05T12:36:46Z</time>
      </trkpt>
      <trkpt lat="43.33237" lon="2.2969">
        <ele>339.96</ele>
        <time>2014-06-05T12:37:05Z</time>
      </trkpt>
      <trkpt lat="43.33237" lon="2.29689">
        <ele>339.48</ele>
        <time>2014-06-05T12:37:38Z</time>
      </trkpt>
      <trkpt lat="43.33231" lon="2.2968">
        <ele>338.52</ele>
        <time>2014-06-05T12:37:53Z</time>
      </trkpt>
      <trkpt lat="43.33227" lon="2.29677">
        <ele>338.04</ele>
        <time>2014-06-05T12:37:56Z</time>
      </trkpt>
      <trkpt lat="43.33212" lon="2.29658">
        <ele>336.6</ele>
        <time>2014-06-05T12:38:15Z</time>
      </trkpt>
      <trkpt lat="43.33202" lon="2.29645">
        <ele>336.6</ele>
        <time>2014-06-05T12:38:29Z</time>
      </trkpt>
      <trkpt lat="43.33188" lon="2.2963">
        <ele>335.16</ele>
        <time>2014-06-05T12:38:45Z</time>
      </trkpt>
      <trkpt lat="43.33178" lon="2.29614">
        <ele>333.71</ele>
        <time>2014-06-05T12:38:59Z</time>
      </trkpt>
      <trkpt lat="43.33168" lon="2.29597">
        <ele>332.75</ele>
        <time>2014-06-05T12:39:15Z</time>
      </trkpt>
      <trkpt lat="43.33163" lon="2.29587">
        <ele>331.79</ele>
        <time>2014-06-05T12:39:28Z</time>
      </trkpt>
      <trkpt lat="43.33157" lon="2.29575">
        <ele>331.31</ele>
        <time>2014-06-05T12:39:40Z</time>
      </trkpt>
      <trkpt lat="43.33152" lon="2.29564">
        <ele>329.39</ele>
        <time>2014-06-05T12:39:53Z</time>
      </trkpt>
      <trkpt lat="43.33147" lon="2.29554">
        <ele>328.43</ele>
        <time>2014-06-05T12:40:05Z</time>
      </trkpt>
      <trkpt lat="43.33145" lon="2.29538">
        <ele>327.95</ele>
        <time>2014-06-05T12:40:20Z</time>
      </trkpt>
      <trkpt lat="43.33145" lon="2.29523">
        <ele>326.99</ele>
        <time>2014-06-05T12:40:34Z</time>
      </trkpt>
      <trkpt lat="43.33148" lon="2.29506">
        <ele>326.02</ele>
        <time>2014-06-05T12:40:54Z</time>
      </trkpt>
      <trkpt lat="43.33145" lon="2.29499">
        <ele>324.1</ele>
        <time>2014-06-05T12:41:11Z</time>
      </trkpt>
      <trkpt lat="43.33136" lon="2.29506">
        <ele>322.66</ele>
        <time>2014-06-05T12:41:31Z</time>
      </trkpt>
      <trkpt lat="43.3313" lon="2.29515">
        <ele>320.74</ele>
        <time>2014-06-05T12:41:44Z</time>
      </trkpt>
      <trkpt lat="43.33121" lon="2.29514">
        <ele>318.81</ele>
        <time>2014-06-05T12:41:57Z</time>
      </trkpt>
      <trkpt lat="43.33118" lon="2.29506">
        <ele>317.85</ele>
        <time>2014-06-05T12:42:10Z</time>
      </trkpt>
      <trkpt lat="43.33117" lon="2.295">
        <ele>317.37</ele>
        <time>2014-06-05T12:42:24Z</time>
      </trkpt>
      <trkpt lat="43.33118" lon="2.29492">
        <ele>315.45</ele>
        <time>2014-06-05T12:42:39Z</time>
      </trkpt>
      <trkpt lat="43.3312" lon="2.29483">
        <ele>315.45</ele>
        <time>2014-06-05T12:42:51Z</time>
      </trkpt>
      <trkpt lat="43.33123" lon="2.29471">
        <ele>314.01</ele>
        <time>2014-06-05T12:43:06Z</time>
      </trkpt>
      <trkpt lat="43.33125" lon="2.29459">
        <ele>311.6</ele>
        <time>2014-06-05T12:43:21Z</time>
      </trkpt>
      <trkpt lat="43.33128" lon="2.29449">
        <ele>311.12</ele>
        <time>2014-06-05T12:43:43Z</time>
      </trkpt>
      <trkpt lat="43.33129" lon="2.29437">
        <ele>309.68</ele>
        <time>2014-06-05T12:43:55Z</time>
      </trkpt>
      <trkpt lat="43.33131" lon="2.29425">
        <ele>307.28</ele>
        <time>2014-06-05T12:44:08Z</time>
      </trkpt>
      <trkpt lat="43.33131" lon="2.29423">
        <ele>307.28</ele>
        <time>2014-06-05T12:44:23Z</time>
      </trkpt>
      <trkpt lat="43.33134" lon="2.29409">
        <ele>306.32</ele>
        <time>2014-06-05T12:44:42Z</time>
      </trkpt>
      <trkpt lat="43.33133" lon="2.29388">
        <ele>304.39</ele>
        <time>2014-06-05T12:45:03Z</time>
      </trkpt>
      <trkpt lat="43.33131" lon="2.29388">
        <ele>303.91</ele>
        <time>2014-06-05T12:45:27Z</time>
      </trkpt>
      <trkpt lat="43.33132" lon="2.29385">
        <ele>302.95</ele>
        <time>2014-06-05T12:45:49Z</time>
      </trkpt>
      <trkpt lat="43.33129" lon="2.29381">
        <ele>302.95</ele>
        <time>2014-06-05T12:46:13Z</time>
      </trkpt>
      <trkpt lat="43.33132" lon="2.29382">
        <ele>303.43</ele>
        <time>2014-06-05T12:46:37Z</time>
      </trkpt>
      <trkpt lat="43.33135" lon="2.29378">
        <ele>302.95</ele>
        <time>2014-06-05T12:46:55Z</time>
      </trkpt>
      <trkpt lat="43.33128" lon="2.29383">
        <ele>303.43</ele>
        <time>2014-06-05T12:47:29Z</time>
      </trkpt>
      <trkpt lat="43.33137" lon="2.29383">
        <ele>303.43</ele>
        <time>2014-06-05T12:47:56Z</time>
      </trkpt>
      <trkpt lat="43.33138" lon="2.2938">
        <ele>302.47</ele>
        <time>2014-06-05T12:48:25Z</time>
      </trkpt>
      <trkpt lat="43.33133" lon="2.29374">
        <ele>303.43</ele>
        <time>2014-06-05T12:48:54Z</time>
      </trkpt>
      <trkpt lat="43.33134" lon="2.2937">
        <ele>303.43</ele>
        <time>2014-06-05T12:49:07Z</time>
      </trkpt>
      <trkpt lat="43.33134" lon="2.29366">
        <ele>301.99</ele>
        <time>2014-06-05T12:49:18Z</time>
      </trkpt>
      <trkpt lat="43.33135" lon="2.29364">
        <ele>301.51</ele>
        <time>2014-06-05T12:49:19Z</time>
      </trkpt>
      <trkpt lat="43.33134" lon="2.29352">
        <ele>301.03</ele>
        <time>2014-06-05T12:49:32Z</time>
      </trkpt>
      <trkpt lat="43.33132" lon="2.29346">
        <ele>300.55</ele>
        <time>2014-06-05T12:49:37Z</time>
      </trkpt>
      <trkpt lat="43.3313" lon="2.29331">
        <ele>299.59</ele>
        <time>2014-06-05T12:49:51Z</time>
      </trkpt>
      <trkpt lat="43.33129" lon="2.29321">
        <ele>299.59</ele>
        <time>2014-06-05T12:50:01Z</time>
      </trkpt>
      <trkpt lat="43.33127" lon="2.29308">
        <ele>299.59</ele>
        <time>2014-06-05T12:50:14Z</time>
      </trkpt>
      <trkpt lat="43.33125" lon="2.29293">
        <ele>301.03</ele>
        <time>2014-06-05T12:50:27Z</time>
      </trkpt>
      <trkpt lat="43.33127" lon="2.2928">
        <ele>301.99</ele>
        <time>2014-06-05T12:50:40Z</time>
      </trkpt>
      <trkpt lat="43.33132" lon="2.29271">
        <ele>303.43</ele>
        <time>2014-06-05T12:50:54Z</time>
      </trkpt>
      <trkpt lat="43.33137" lon="2.2926">
        <ele>305.36</ele>
        <time>2014-06-05T12:51:08Z</time>
      </trkpt>
      <trkpt lat="43.33138" lon="2.29249">
        <ele>306.8</ele>
        <time>2014-06-05T12:51:21Z</time>
      </trkpt>
      <trkpt lat="43.3314" lon="2.29238">
        <ele>307.76</ele>
        <time>2014-06-05T12:51:36Z</time>
      </trkpt>
      <trkpt lat="43.33143" lon="2.29227">
        <ele>309.68</ele>
        <time>2014-06-05T12:51:50Z</time>
      </trkpt>
      <trkpt lat="43.33149" lon="2.29216">
        <ele>310.64</ele>
        <time>2014-06-05T12:52:03Z</time>
      </trkpt>
      <trkpt lat="43.3315" lon="2.29213">
        <ele>311.6</ele>
        <time>2014-06-05T12:52:18Z</time>
      </trkpt>
      <trkpt lat="43.33152" lon="2.29202">
        <ele>312.57</ele>
        <time>2014-06-05T12:52:35Z</time>
      </trkpt>
      <trkpt lat="43.33156" lon="2.29192">
        <ele>314.97</ele>
        <time>2014-06-05T12:52:50Z</time>
      </trkpt>
      <trkpt lat="43.3316" lon="2.29178">
        <ele>316.89</ele>
        <time>2014-06-05T12:53:07Z</time>
      </trkpt>
      <trkpt lat="43.33164" lon="2.29166">
        <ele>318.33</ele>
        <time>2014-06-05T12:53:21Z</time>
      </trkpt>
      <trkpt lat="43.33167" lon="2.29158">
        <ele>320.26</ele>
        <time>2014-06-05T12:53:32Z</time>
      </trkpt>
      <trkpt lat="43.33168" lon="2.29146">
        <ele>321.7</ele>
        <time>2014-06-05T12:53:45Z</time>
      </trkpt>
      <trkpt lat="43.33173" lon="2.29135">
        <ele>322.66</ele>
        <time>2014-06-05T12:54:01Z</time>
      </trkpt>
      <trkpt lat="43.33174" lon="2.29128">
        <ele>323.62</ele>
        <time>2014-06-05T12:54:14Z</time>
      </trkpt>
      <trkpt lat="43.33167" lon="2.29126">
        <ele>325.54</ele>
        <time>2014-06-05T12:54:30Z</time>
      </trkpt>
      <trkpt lat="43.33174" lon="2.29125">
        <ele>325.06</ele>
        <time>2014-06-05T12:54:48Z</time>
      </trkpt>
      <trkpt lat="43.33178" lon="2.29112">
        <ele>326.99</ele>
        <time>2014-06-05T12:55:06Z</time>
      </trkpt>
      <trkpt lat="43.33179" lon="2.29104">
        <ele>327.47</ele>
        <time>2014-06-05T12:55:17Z</time>
      </trkpt>
      <trkpt lat="43.33178" lon="2.29096">
        <ele>328.91</ele>
        <time>2014-06-05T12:55:32Z</time>
      </trkpt>
      <trkpt lat="43.33181" lon="2.29085">
        <ele>329.39</ele>
        <time>2014-06-05T12:55:46Z</time>
      </trkpt>
      <trkpt lat="43.33181" lon="2.29077">
        <ele>329.39</ele>
        <time>2014-06-05T12:55:54Z</time>
      </trkpt>
      <trkpt lat="43.33179" lon="2.2907">
        <ele>329.87</ele>
        <time>2014-06-05T12:55:59Z</time>
      </trkpt>
      <trkpt lat="43.33169" lon="2.29068">
        <ele>329.87</ele>
        <time>2014-06-05T12:56:15Z</time>
      </trkpt>
      <trkpt lat="43.33162" lon="2.29079">
        <ele>330.35</ele>
        <time>2014-06-05T12:56:30Z</time>
      </trkpt>
      <trkpt lat="43.33158" lon="2.29087">
        <ele>330.35</ele>
        <time>2014-06-05T12:56:42Z</time>
      </trkpt>
      <trkpt lat="43.33158" lon="2.29094">
        <ele>330.35</ele>
        <time>2014-06-05T12:56:59Z</time>
      </trkpt>
      <trkpt lat="43.33159" lon="2.29093">
        <ele>329.87</ele>
        <time>2014-06-05T12:57:21Z</time>
      </trkpt>
      <trkpt lat="43.33158" lon="2.29096">
        <ele>329.87</ele>
        <time>2014-06-05T12:57:43Z</time>
      </trkpt>
      <trkpt lat="43.33156" lon="2.29095">
        <ele>330.35</ele>
        <time>2014-06-05T12:58:03Z</time>
      </trkpt>
      <trkpt lat="43.33156" lon="2.29095">
        <ele>330.35</ele>
        <time>2014-06-05T12:58:26Z</time>
      </trkpt>
      <trkpt lat="43.33158" lon="2.29092">
        <ele>330.83</ele>
        <time>2014-06-05T12:58:59Z</time>
      </trkpt>
      <trkpt lat="43.33153" lon="2.29093">
        <ele>330.83</ele>
        <time>2014-06-05T12:59:13Z</time>
      </trkpt>
      <trkpt lat="43.33149" lon="2.29096">
        <ele>330.83</ele>
        <time>2014-06-05T12:59:25Z</time>
      </trkpt>
      <trkpt lat="43.33149" lon="2.29095">
        <ele>330.83</ele>
        <time>2014-06-05T12:59:34Z</time>
      </trkpt>
      <trkpt lat="43.33144" lon="2.29095">
        <ele>330.35</ele>
        <time>2014-06-05T12:59:39Z</time>
      </trkpt>
      <trkpt lat="43.33135" lon="2.29087">
        <ele>332.75</ele>
        <time>2014-06-05T12:59:56Z</time>
      </trkpt>
      <trkpt lat="43.33126" lon="2.29075">
        <ele>332.75</ele>
        <time>2014-06-05T13:00:11Z</time>
      </trkpt>
      <trkpt lat="43.33116" lon="2.2906">
        <ele>333.23</ele>
        <time>2014-06-05T13:00:26Z</time>
      </trkpt>
      <trkpt lat="43.33104" lon="2.29042">
        <ele>333.71</ele>
        <time>2014-06-05T13:00:44Z</time>
      </trkpt>
      <trkpt lat="43.33097" lon="2.29031">
        <ele>333.71</ele>
        <time>2014-06-05T13:00:59Z</time>
      </trkpt>
      <trkpt lat="43.33089" lon="2.29014">
        <ele>333.71</ele>
        <time>2014-06-05T13:01:14Z</time>
      </trkpt>
      <trkpt lat="43.33082" lon="2.29002">
        <ele>333.71</ele>
        <time>2014-06-05T13:01:30Z</time>
      </trkpt>
      <trkpt lat="43.33074" lon="2.28988">
        <ele>332.75</ele>
        <time>2014-06-05T13:01:45Z</time>
      </trkpt>
      <trkpt lat="43.33074" lon="2.28984">
        <ele>332.27</ele>
        <time>2014-06-05T13:01:48Z</time>
      </trkpt>
      <trkpt lat="43.33063" lon="2.28965">
        <ele>331.79</ele>
        <time>2014-06-05T13:02:06Z</time>
      </trkpt>
      <trkpt lat="43.33052" lon="2.2895">
        <ele>331.31</ele>
        <time>2014-06-05T13:02:22Z</time>
      </trkpt>
      <trkpt lat="43.33042" lon="2.28936">
        <ele>330.35</ele>
        <time>2014-06-05T13:02:37Z</time>
      </trkpt>
      <trkpt lat="43.3304" lon="2.28934">
        <ele>329.87</ele>
        <time>2014-06-05T13:02:41Z</time>
      </trkpt>
      <trkpt lat="43.33023" lon="2.28906">
        <ele>328.91</ele>
        <time>2014-06-05T13:03:07Z</time>
      </trkpt>
      <trkpt lat="43.33011" lon="2.28883">
        <ele>327.47</ele>
        <time>2014-06-05T13:03:30Z</time>
      </trkpt>
      <trkpt lat="43.33003" lon="2.28878">
        <ele>326.02</ele>
        <time>2014-06-05T13:03:46Z</time>
      </trkpt>
      <trkpt lat="43.33002" lon="2.28877">
        <ele>325.54</ele>
        <time>2014-06-05T13:03:48Z</time>
      </trkpt>
      <trkpt lat="43.32983" lon="2.28874">
        <ele>323.62</ele>
        <time>2014-06-05T13:04:11Z</time>
      </trkpt>
      <trkpt lat="43.32975" lon="2.28865">
        <ele>321.22</ele>
        <time>2014-06-05T13:04:28Z</time>
      </trkpt>
      <trkpt lat="43.32972" lon="2.28845">
        <ele>318.33</ele>
        <time>2014-06-05T13:04:50Z</time>
      </trkpt>
      <trkpt lat="43.32973" lon="2.28831">
        <ele>316.89</ele>
        <time>2014-06-05T13:05:06Z</time>
      </trkpt>
      <trkpt lat="43.32975" lon="2.28819">
        <ele>314.97</ele>
        <time>2014-06-05T13:05:18Z</time>
      </trkpt>
      <trkpt lat="43.32976" lon="2.28807">
        <ele>314.01</ele>
        <time>2014-06-05T13:05:36Z</time>
      </trkpt>
      <trkpt lat="43.32978" lon="2.28795">
        <ele>312.09</ele>
        <time>2014-06-05T13:05:51Z</time>
      </trkpt>
      <trkpt lat="43.32981" lon="2.28787">
        <ele>311.6</ele>
        <time>2014-06-05T13:06:08Z</time>
      </trkpt>
      <trkpt lat="43.32982" lon="2.28787">
        <ele>311.12</ele>
        <time>2014-06-05T13:06:25Z</time>
      </trkpt>
      <trkpt lat="43.32982" lon="2.28786">
        <ele>311.12</ele>
        <time>2014-06-05T13:06:47Z</time>
      </trkpt>
      <trkpt lat="43.32982" lon="2.28785">
        <ele>311.12</ele>
        <time>2014-06-05T13:07:03Z</time>
      </trkpt>
      <trkpt lat="43.32981" lon="2.28786">
        <ele>311.12</ele>
        <time>2014-06-05T13:07:24Z</time>
      </trkpt>
      <trkpt lat="43.3298" lon="2.28786">
        <ele>311.12</ele>
        <time>2014-06-05T13:07:44Z</time>
      </trkpt>
      <trkpt lat="43.32981" lon="2.28787">
        <ele>311.12</ele>
        <time>2014-06-05T13:08:10Z</time>
      </trkpt>
      <trkpt lat="43.3298" lon="2.28782">
        <ele>311.12</ele>
        <time>2014-06-05T13:08:26Z</time>
      </trkpt>
      <trkpt lat="43.32984" lon="2.28778">
        <ele>310.16</ele>
        <time>2014-06-05T13:08:31Z</time>
      </trkpt>
      <trkpt lat="43.32986" lon="2.2877">
        <ele>310.64</ele>
        <time>2014-06-05T13:08:37Z</time>
      </trkpt>
      <trkpt lat="43.32988" lon="2.28763">
        <ele>309.68</ele>
        <time>2014-06-05T13:08:43Z</time>
      </trkpt>
      <trkpt lat="43.3299" lon="2.28753">
        <ele>308.72</ele>
        <time>2014-06-05T13:08:56Z</time>
      </trkpt>
      <trkpt lat="43.32993" lon="2.28736">
        <ele>306.8</ele>
        <time>2014-06-05T13:09:13Z</time>
      </trkpt>
      <trkpt lat="43.32995" lon="2.28717">
        <ele>305.36</ele>
        <time>2014-06-05T13:09:32Z</time>
      </trkpt>
      <trkpt lat="43.32997" lon="2.28703">
        <ele>302.95</ele>
        <time>2014-06-05T13:09:48Z</time>
      </trkpt>
      <trkpt lat="43.33" lon="2.28694">
        <ele>302.47</ele>
        <time>2014-06-05T13:10:02Z</time>
      </trkpt>
      <trkpt lat="43.33002" lon="2.28684">
        <ele>301.03</ele>
        <time>2014-06-05T13:10:17Z</time>
      </trkpt>
      <trkpt lat="43.33006" lon="2.28674">
        <ele>301.03</ele>
        <time>2014-06-05T13:10:31Z</time>
      </trkpt>
      <trkpt lat="43.33012" lon="2.28666">
        <ele>301.03</ele>
        <time>2014-06-05T13:10:46Z</time>
      </trkpt>
      <trkpt lat="43.33017" lon="2.28659">
        <ele>300.07</ele>
        <time>2014-06-05T13:11:00Z</time>
      </trkpt>
      <trkpt lat="43.33016" lon="2.28655">
        <ele>299.59</ele>
        <time>2014-06-05T13:11:12Z</time>
      </trkpt>
      <trkpt lat="43.33016" lon="2.28652">
        <ele>299.59</ele>
        <time>2014-06-05T13:11:19Z</time>
      </trkpt>
      <trkpt lat="43.33022" lon="2.28647">
        <ele>300.07</ele>
        <time>2014-06-05T13:11:31Z</time>
      </trkpt>
      <trkpt lat="43.33023" lon="2.2864">
        <ele>300.55</ele>
        <time>2014-06-05T13:11:47Z</time>
      </trkpt>
      <trkpt lat="43.33025" lon="2.28629">
        <ele>301.99</ele>
        <time>2014-06-05T13:12:01Z</time>
      </trkpt>
      <trkpt lat="43.33029" lon="2.28621">
        <ele>303.43</ele>
        <time>2014-06-05T13:12:13Z</time>
      </trkpt>
      <trkpt lat="43.33034" lon="2.28619">
        <ele>304.39</ele>
        <time>2014-06-05T13:12:27Z</time>
      </trkpt>
      <trkpt lat="43.33038" lon="2.2861">
        <ele>305.36</ele>
        <time>2014-06-05T13:12:40Z</time>
      </trkpt>
      <trkpt lat="43.33039" lon="2.28597">
        <ele>307.28</ele>
        <time>2014-06-05T13:12:53Z</time>
      </trkpt>
      <trkpt lat="43.33039" lon="2.28595">
        <ele>307.28</ele>
        <time>2014-06-05T13:12:55Z</time>
      </trkpt>
      <trkpt lat="43.33038" lon="2.28585">
        <ele>308.24</ele>
        <time>2014-06-05T13:13:09Z</time>
      </trkpt>
      <trkpt lat="43.33044" lon="2.28578">
        <ele>310.16</ele>
        <time>2014-06-05T13:13:24Z</time>
      </trkpt>
      <trkpt lat="43.33044" lon="2.28567">
        <ele>310.64</ele>
        <time>2014-06-05T13:13:36Z</time>
      </trkpt>
      <trkpt lat="43.33044" lon="2.28557">
        <ele>312.09</ele>
        <time>2014-06-05T13:13:51Z</time>
      </trkpt>
      <trkpt lat="43.33043" lon="2.28545">
        <ele>314.01</ele>
        <time>2014-06-05T13:14:06Z</time>
      </trkpt>
      <trkpt lat="43.3304" lon="2.28536">
        <ele>315.45</ele>
        <time>2014-06-05T13:14:20Z</time>
      </trkpt>
      <trkpt lat="43.33037" lon="2.28525">
        <ele>317.37</ele>
        <time>2014-06-05T13:14:34Z</time>
      </trkpt>
      <trkpt lat="43.33034" lon="2.28513">
        <ele>318.81</ele>
        <time>2014-06-05T13:14:47Z</time>
      </trkpt>
      <trkpt lat="43.33033" lon="2.28502">
        <ele>320.74</ele>
        <time>2014-06-05T13:15:05Z</time>
      </trkpt>
      <trkpt lat="43.33032" lon="2.28496">
        <ele>321.22</ele>
        <time>2014-06-05T13:15:19Z</time>
      </trkpt>
      <trkpt lat="43.33026" lon="2.28487">
        <ele>323.14</ele>
        <time>2014-06-05T13:15:34Z</time>
      </trkpt>
      <trkpt lat="43.33022" lon="2.28483">
        <ele>324.58</ele>
        <time>2014-06-05T13:15:46Z</time>
      </trkpt>
      <trkpt lat="43.33015" lon="2.28468">
        <ele>326.02</ele>
        <time>2014-06-05T13:16:06Z</time>
      </trkpt>
      <trkpt lat="43.33015" lon="2.28465">
        <ele>326.99</ele>
        <time>2014-06-05T13:16:22Z</time>
      </trkpt>
      <trkpt lat="43.33014" lon="2.28456">
        <ele>327.47</ele>
        <time>2014-06-05T13:16:37Z</time>
      </trkpt>
      <trkpt lat="43.33014" lon="2.28447">
        <ele>326.99</ele>
        <time>2014-06-05T13:16:52Z</time>
      </trkpt>
      <trkpt lat="43.33014" lon="2.28446">
        <ele>327.47</ele>
        <time>2014-06-05T13:17:08Z</time>
      </trkpt>
      <trkpt lat="43.33015" lon="2.28447">
        <ele>327.95</ele>
        <time>2014-06-05T13:17:30Z</time>
      </trkpt>
      <trkpt lat="43.33017" lon="2.28439">
        <ele>328.43</ele>
        <time>2014-06-05T13:17:45Z</time>
      </trkpt>
      <trkpt lat="43.33016" lon="2.28421">
        <ele>328.43</ele>
        <time>2014-06-05T13:18:04Z</time>
      </trkpt>
      <trkpt lat="43.33017" lon="2.28409">
        <ele>328.91</ele>
        <time>2014-06-05T13:18:22Z</time>
      </trkpt>
      <trkpt lat="43.33017" lon="2.2841">
        <ele>328.91</ele>
        <time>2014-06-05T13:18:23Z</time>
      </trkpt>
      <trkpt lat="43.33015" lon="2.2841">
        <ele>328.91</ele>
        <time>2014-06-05T13:18:37Z</time>
      </trkpt>
      <trkpt lat="43.33015" lon="2.28411">
        <ele>328.91</ele>
        <time>2014-06-05T13:18:54Z</time>
      </trkpt>
      <trkpt lat="43.33016" lon="2.28412">
        <ele>328.91</ele>
        <time>2014-06-05T13:19:09Z</time>
      </trkpt>
      <trkpt lat="43.33016" lon="2.28411">
        <ele>328.43</ele>
        <time>2014-06-05T13:19:26Z</time>
      </trkpt>
      <trkpt lat="43.33016" lon="2.28408">
        <ele>329.39</ele>
        <time>2014-06-05T13:19:57Z</time>
      </trkpt>
      <trkpt lat="43.33016" lon="2.2841">
        <ele>328.91</ele>
        <time>2014-06-05T13:20:26Z</time>
      </trkpt>
      <trkpt lat="43.33016" lon="2.2841">
        <ele>328.91</ele>
        <time>2014-06-05T13:20:38Z</time>
      </trkpt>
      <trkpt lat="43.33018" lon="2.28408">
        <ele>329.39</ele>
        <time>2014-06-05T13:20:54Z</time>
      </trkpt>
      <trkpt lat="43.3302" lon="2.28392">
        <ele>329.87</ele>
        <time>2014-06-05T13:21:08Z</time>
      </trkpt>
      <trkpt lat="43.33021" lon="2.2839">
        <ele>329.87</ele>
        <time>2014-06-05T13:21:20Z</time>
      </trkpt>
      <trkpt lat="43.33022" lon="2.28378">
        <ele>330.35</ele>
        <time>2014-06-05T13:21:33Z</time>
      </trkpt>
      <trkpt lat="43.33024" lon="2.28361">
        <ele>331.31</ele>
        <time>2014-06-05T13:21:50Z</time>
      </trkpt>
      <trkpt lat="43.33025" lon="2.28345">
        <ele>332.27</ele>
        <time>2014-06-05T13:22:05Z</time>
      </trkpt>
      <trkpt lat="43.33024" lon="2.28329">
        <ele>333.23</ele>
        <time>2014-06-05T13:22:18Z</time>
      </trkpt>
      <trkpt lat="43.33022" lon="2.28313">
        <ele>333.71</ele>
        <time>2014-06-05T13:22:32Z</time>
      </trkpt>
      <trkpt lat="43.33019" lon="2.28297">
        <ele>334.68</ele>
        <time>2014-06-05T13:22:46Z</time>
      </trkpt>
      <trkpt lat="43.33016" lon="2.2828">
        <ele>335.16</ele>
        <time>2014-06-05T13:23:00Z</time>
      </trkpt>
      <trkpt lat="43.33013" lon="2.28263">
        <ele>336.12</ele>
        <time>2014-06-05T13:23:15Z</time>
      </trkpt>
      <trkpt lat="43.3301" lon="2.28246">
        <ele>336.6</ele>
        <time>2014-06-05T13:23:31Z</time>
      </trkpt>
      <trkpt lat="43.33008" lon="2.28241">
        <ele>336.6</ele>
        <time>2014-06-05T13:23:35Z</time>
      </trkpt>
      <trkpt lat="43.33005" lon="2.28229">
        <ele>338.04</ele>
        <time>2014-06-05T13:23:48Z</time>
      </trkpt>
      <trkpt lat="43.32999" lon="2.28204">
        <ele>338.52</ele>
        <time>2014-06-05T13:24:07Z</time>
      </trkpt>
      <trkpt lat="43.32994" lon="2.28187">
        <ele>339.48</ele>
        <time>2014-06-05T13:24:22Z</time>
      </trkpt>
      <trkpt lat="43.32991" lon="2.28171">
        <ele>339.96</ele>
        <time>2014-06-05T13:24:35Z</time>
      </trkpt>
      <trkpt lat="43.32986" lon="2.28155">
        <ele>339.96</ele>
        <time>2014-06-05T13:24:51Z</time>
      </trkpt>
      <trkpt lat="43.32985" lon="2.28154">
        <ele>339.96</ele>
        <time>2014-06-05T13:25:17Z</time>
      </trkpt>
      <trkpt lat="43.32986" lon="2.28152">
        <ele>339.96</ele>
        <time>2014-06-05T13:25:25Z</time>
      </trkpt>
      <trkpt lat="43.32984" lon="2.28142">
        <ele>340.44</ele>
        <time>2014-06-05T13:25:33Z</time>
      </trkpt>
      <trkpt lat="43.32978" lon="2.28123">
        <ele>340.44</ele>
        <time>2014-06-05T13:25:49Z</time>
      </trkpt>
      <trkpt lat="43.32971" lon="2.28108">
        <ele>341.41</ele>
        <time>2014-06-05T13:26:02Z</time>
      </trkpt>
      <trkpt lat="43.3297" lon="2.28101">
        <ele>340.92</ele>
        <time>2014-06-05T13:26:08Z</time>
      </trkpt>
      <trkpt lat="43.32968" lon="2.28097">
        <ele>341.89</ele>
        <time>2014-06-05T13:26:12Z</time>
      </trkpt>
      <trkpt lat="43.32966" lon="2.28092">
        <ele>340.92</ele>
        <time>2014-06-05T13:26:16Z</time>
      </trkpt>
      <trkpt lat="43.32962" lon="2.2808">
        <ele>341.41</ele>
        <time>2014-06-05T13:26:30Z</time>
      </trkpt>
      <trkpt lat="43.3296" lon="2.28075">
        <ele>341.41</ele>
        <time>2014-06-05T13:26:44Z</time>
      </trkpt>
      <trkpt lat="43.32957" lon="2.28078">
        <ele>341.41</ele>
        <time>2014-06-05T13:26:53Z</time>
      </trkpt>
      <trkpt lat="43.32955" lon="2.28081">
        <ele>340.92</ele>
        <time>2014-06-05T13:26:56Z</time>
      </trkpt>
      <trkpt lat="43.32939" lon="2.28091">
        <ele>341.41</ele>
        <time>2014-06-05T13:27:13Z</time>
      </trkpt>
      <trkpt lat="43.32925" lon="2.28101">
        <ele>340.92</ele>
        <time>2014-06-05T13:27:29Z</time>
      </trkpt>
      <trkpt lat="43.32917" lon="2.28106">
        <ele>339.96</ele>
        <time>2014-06-05T13:27:47Z</time>
      </trkpt>
      <trkpt lat="43.32915" lon="2.28113">
        <ele>339.48</ele>
        <time>2014-06-05T13:28:07Z</time>
      </trkpt>
      <trkpt lat="43.32915" lon="2.28113">
        <ele>339.48</ele>
        <time>2014-06-05T13:28:29Z</time>
      </trkpt>
      <trkpt lat="43.32914" lon="2.28111">
        <ele>339</ele>
        <time>2014-06-05T13:28:55Z</time>
      </trkpt>
      <trkpt lat="43.32915" lon="2.28109">
        <ele>339</ele>
        <time>2014-06-05T13:29:30Z</time>
      </trkpt>
      <trkpt lat="43.32915" lon="2.28108">
        <ele>339</ele>
        <time>2014-06-05T13:30:10Z</time>
      </trkpt>
      <trkpt lat="43.32915" lon="2.28107">
        <ele>339</ele>
        <time>2014-06-05T13:30:51Z</time>
      </trkpt>
      <trkpt lat="43.32912" lon="2.2811">
        <ele>339.96</ele>
        <time>2014-06-05T13:31:04Z</time>
      </trkpt>
      <trkpt lat="43.3291" lon="2.28114">
        <ele>339.96</ele>
        <time>2014-06-05T13:31:22Z</time>
      </trkpt>
      <trkpt lat="43.32905" lon="2.2812">
        <ele>339.48</ele>
        <time>2014-06-05T13:31:28Z</time>
      </trkpt>
      <trkpt lat="43.32897" lon="2.2813">
        <ele>339</ele>
        <time>2014-06-05T13:31:37Z</time>
      </trkpt>
      <trkpt lat="43.32882" lon="2.28153">
        <ele>339</ele>
        <time>2014-06-05T13:31:55Z</time>
      </trkpt>
      <trkpt lat="43.32871" lon="2.28175">
        <ele>340.44</ele>
        <time>2014-06-05T13:32:11Z</time>
      </trkpt>
      <trkpt lat="43.3286" lon="2.28195">
        <ele>340.92</ele>
        <time>2014-06-05T13:32:26Z</time>
      </trkpt>
      <trkpt lat="43.32855" lon="2.28206">
        <ele>340.44</ele>
        <time>2014-06-05T13:32:35Z</time>
      </trkpt>
      <trkpt lat="43.3285" lon="2.28216">
        <ele>341.41</ele>
        <time>2014-06-05T13:32:43Z</time>
      </trkpt>
      <trkpt lat="43.32841" lon="2.28235">
        <ele>341.41</ele>
        <time>2014-06-05T13:32:58Z</time>
      </trkpt>
      <trkpt lat="43.32835" lon="2.28246">
        <ele>341.89</ele>
        <time>2014-06-05T13:33:08Z</time>
      </trkpt>
      <trkpt lat="43.32825" lon="2.28263">
        <ele>342.37</ele>
        <time>2014-06-05T13:33:23Z</time>
      </trkpt>
      <trkpt lat="43.32816" lon="2.28275">
        <ele>342.37</ele>
        <time>2014-06-05T13:33:35Z</time>
      </trkpt>
      <trkpt lat="43.32805" lon="2.28287">
        <ele>342.37</ele>
        <time>2014-06-05T13:33:50Z</time>
      </trkpt>
      <trkpt lat="43.32802" lon="2.2829">
        <ele>343.33</ele>
        <time>2014-06-05T13:33:53Z</time>
      </trkpt>
      <trkpt lat="43.32792" lon="2.28306">
        <ele>342.85</ele>
        <time>2014-06-05T13:34:10Z</time>
      </trkpt>
      <trkpt lat="43.32782" lon="2.28317">
        <ele>343.81</ele>
        <time>2014-06-05T13:34:24Z</time>
      </trkpt>
      <trkpt lat="43.32775" lon="2.28327">
        <ele>343.81</ele>
        <time>2014-06-05T13:34:38Z</time>
      </trkpt>
      <trkpt lat="43.32766" lon="2.2834">
        <ele>344.29</ele>
        <time>2014-06-05T13:34:51Z</time>
      </trkpt>
      <trkpt lat="43.32755" lon="2.28354">
        <ele>343.81</ele>
        <time>2014-06-05T13:35:05Z</time>
      </trkpt>
      <trkpt lat="43.32746" lon="2.28368">
        <ele>343.81</ele>
        <time>2014-06-05T13:35:19Z</time>
      </trkpt>
      <trkpt lat="43.32742" lon="2.28379">
        <ele>343.81</ele>
        <time>2014-06-05T13:35:35Z</time>
      </trkpt>
      <trkpt lat="43.32733" lon="2.28387">
        <ele>344.29</ele>
        <time>2014-06-05T13:35:45Z</time>
      </trkpt>
      <trkpt lat="43.32732" lon="2.28389">
        <ele>344.77</ele>
        <time>2014-06-05T13:35:47Z</time>
      </trkpt>
      <trkpt lat="43.32721" lon="2.28402">
        <ele>344.77</ele>
        <time>2014-06-05T13:36:02Z</time>
      </trkpt>
      <trkpt lat="43.32716" lon="2.28411">
        <ele>343.81</ele>
        <time>2014-06-05T13:36:18Z</time>
      </trkpt>
      <trkpt lat="43.32701" lon="2.28417">
        <ele>345.25</ele>
        <time>2014-06-05T13:36:36Z</time>
      </trkpt>
      <trkpt lat="43.32697" lon="2.28417">
        <ele>345.25</ele>
        <time>2014-06-05T13:36:56Z</time>
      </trkpt>
      <trkpt lat="43.32693" lon="2.28411">
        <ele>345.25</ele>
        <time>2014-06-05T13:37:22Z</time>
      </trkpt>
      <trkpt lat="43.32698" lon="2.28408">
        <ele>344.77</ele>
        <time>2014-06-05T13:37:51Z</time>
      </trkpt>
      <trkpt lat="43.32701" lon="2.28405">
        <ele>345.25</ele>
        <time>2014-06-05T13:38:13Z</time>
      </trkpt>
      <trkpt lat="43.32702" lon="2.28419">
        <ele>344.77</ele>
        <time>2014-06-05T13:38:29Z</time>
      </trkpt>
      <trkpt lat="43.32702" lon="2.28431">
        <ele>344.29</ele>
        <time>2014-06-05T13:38:49Z</time>
      </trkpt>
      <trkpt lat="43.32687" lon="2.28447">
        <ele>343.81</ele>
        <time>2014-06-05T13:39:06Z</time>
      </trkpt>
      <trkpt lat="43.32674" lon="2.28462">
        <ele>342.85</ele>
        <time>2014-06-05T13:39:21Z</time>
      </trkpt>
      <trkpt lat="43.32662" lon="2.28478">
        <ele>342.37</ele>
        <time>2014-06-05T13:39:36Z</time>
      </trkpt>
      <trkpt lat="43.32656" lon="2.28486">
        <ele>343.33</ele>
        <time>2014-06-05T13:39:50Z</time>
      </trkpt>
      <trkpt lat="43.32653" lon="2.2849">
        <ele>343.33</ele>
        <time>2014-06-05T13:39:55Z</time>
      </trkpt>
      <trkpt lat="43.32649" lon="2.28495">
        <ele>342.37</ele>
        <time>2014-06-05T13:40:00Z</time>
      </trkpt>
      <trkpt lat="43.32639" lon="2.28504">
        <ele>342.37</ele>
        <time>2014-06-05T13:40:12Z</time>
      </trkpt>
      <trkpt lat="43.32639" lon="2.28505">
        <ele>342.37</ele>
        <time>2014-06-05T13:40:13Z</time>
      </trkpt>
      <trkpt lat="43.32634" lon="2.28509">
        <ele>341.89</ele>
        <time>2014-06-05T13:40:18Z</time>
      </trkpt>
      <trkpt lat="43.32632" lon="2.28514">
        <ele>341.41</ele>
        <time>2014-06-05T13:40:25Z</time>
      </trkpt>
      <trkpt lat="43.32629" lon="2.28516">
        <ele>341.41</ele>
        <time>2014-06-05T13:40:29Z</time>
      </trkpt>
      <trkpt lat="43.32622" lon="2.28525">
        <ele>340.44</ele>
        <time>2014-06-05T13:40:39Z</time>
      </trkpt>
      <trkpt lat="43.32621" lon="2.28526">
        <ele>340.92</ele>
        <time>2014-06-05T13:40:42Z</time>
      </trkpt>
      <trkpt lat="43.32619" lon="2.28529">
        <ele>340.44</ele>
        <time>2014-06-05T13:40:46Z</time>
      </trkpt>
      <trkpt lat="43.32614" lon="2.28533">
        <ele>339.96</ele>
        <time>2014-06-05T13:40:52Z</time>
      </trkpt>
      <trkpt lat="43.32608" lon="2.28544">
        <ele>340.44</ele>
        <time>2014-06-05T13:41:03Z</time>
      </trkpt>
      <trkpt lat="43.32607" lon="2.28545">
        <ele>340.44</ele>
        <time>2014-06-05T13:41:05Z</time>
      </trkpt>
      <trkpt lat="43.32605" lon="2.28546">
        <ele>340.44</ele>
        <time>2014-06-05T13:41:07Z</time>
      </trkpt>
      <trkpt lat="43.32593" lon="2.28568">
        <ele>339.96</ele>
        <time>2014-06-05T13:41:27Z</time>
      </trkpt>
      <trkpt lat="43.32588" lon="2.28588">
        <ele>339</ele>
        <time>2014-06-05T13:41:44Z</time>
      </trkpt>
      <trkpt lat="43.32585" lon="2.286">
        <ele>339.48</ele>
        <time>2014-06-05T13:41:54Z</time>
      </trkpt>
      <trkpt lat="43.32585" lon="2.28602">
        <ele>339.48</ele>
        <time>2014-06-05T13:41:56Z</time>
      </trkpt>
      <trkpt lat="43.3258" lon="2.28614">
        <ele>339.48</ele>
        <time>2014-06-05T13:42:07Z</time>
      </trkpt>
      <trkpt lat="43.32575" lon="2.28624">
        <ele>339</ele>
        <time>2014-06-05T13:42:16Z</time>
      </trkpt>
      <trkpt lat="43.32573" lon="2.28627">
        <ele>338.52</ele>
        <time>2014-06-05T13:42:19Z</time>
      </trkpt>
      <trkpt lat="43.3257" lon="2.28638">
        <ele>338.52</ele>
        <time>2014-06-05T13:42:29Z</time>
      </trkpt>
      <trkpt lat="43.32568" lon="2.28641">
        <ele>338.52</ele>
        <time>2014-06-05T13:42:33Z</time>
      </trkpt>
      <trkpt lat="43.32566" lon="2.28647">
        <ele>338.04</ele>
        <time>2014-06-05T13:42:38Z</time>
      </trkpt>
      <trkpt lat="43.32563" lon="2.28653">
        <ele>337.56</ele>
        <time>2014-06-05T13:42:43Z</time>
      </trkpt>
      <trkpt lat="43.32559" lon="2.28664">
        <ele>338.52</ele>
        <time>2014-06-05T13:42:53Z</time>
      </trkpt>
      <trkpt lat="43.32557" lon="2.2867">
        <ele>338.04</ele>
        <time>2014-06-05T13:42:58Z</time>
      </trkpt>
      <trkpt lat="43.32553" lon="2.28677">
        <ele>338.04</ele>
        <time>2014-06-05T13:43:04Z</time>
      </trkpt>
      <trkpt lat="43.32552" lon="2.28682">
        <ele>338.52</ele>
        <time>2014-06-05T13:43:08Z</time>
      </trkpt>
      <trkpt lat="43.3255" lon="2.28688">
        <ele>337.56</ele>
        <time>2014-06-05T13:43:13Z</time>
      </trkpt>
      <trkpt lat="43.32544" lon="2.28702">
        <ele>337.56</ele>
        <time>2014-06-05T13:43:24Z</time>
      </trkpt>
      <trkpt lat="43.32536" lon="2.28725">
        <ele>337.08</ele>
        <time>2014-06-05T13:43:43Z</time>
      </trkpt>
      <trkpt lat="43.32536" lon="2.28728">
        <ele>339</ele>
        <time>2014-06-05T13:43:46Z</time>
      </trkpt>
      <trkpt lat="43.32532" lon="2.28743">
        <ele>337.08</ele>
        <time>2014-06-05T13:43:58Z</time>
      </trkpt>
      <trkpt lat="43.32529" lon="2.28749">
        <ele>337.08</ele>
        <time>2014-06-05T13:44:03Z</time>
      </trkpt>
      <trkpt lat="43.32527" lon="2.28757">
        <ele>338.04</ele>
        <time>2014-06-05T13:44:09Z</time>
      </trkpt>
      <trkpt lat="43.32523" lon="2.28764">
        <ele>337.08</ele>
        <time>2014-06-05T13:44:15Z</time>
      </trkpt>
      <trkpt lat="43.32521" lon="2.28772">
        <ele>337.56</ele>
        <time>2014-06-05T13:44:21Z</time>
      </trkpt>
      <trkpt lat="43.32519" lon="2.28777">
        <ele>337.08</ele>
        <time>2014-06-05T13:44:26Z</time>
      </trkpt>
      <trkpt lat="43.32517" lon="2.28785">
        <ele>336.6</ele>
        <time>2014-06-05T13:44:32Z</time>
      </trkpt>
      <trkpt lat="43.32514" lon="2.28792">
        <ele>337.08</ele>
        <time>2014-06-05T13:44:38Z</time>
      </trkpt>
      <trkpt lat="43.32511" lon="2.28798">
        <ele>337.08</ele>
        <time>2014-06-05T13:44:43Z</time>
      </trkpt>
      <trkpt lat="43.32509" lon="2.28804">
        <ele>337.56</ele>
        <time>2014-06-05T13:44:48Z</time>
      </trkpt>
      <trkpt lat="43.32504" lon="2.28817">
        <ele>337.08</ele>
        <time>2014-06-05T13:44:58Z</time>
      </trkpt>
      <trkpt lat="43.32504" lon="2.28817">
        <ele>337.08</ele>
        <time>2014-06-05T13:44:59Z</time>
      </trkpt>
      <trkpt lat="43.32501" lon="2.28825">
        <ele>337.08</ele>
        <time>2014-06-05T13:45:09Z</time>
      </trkpt>
      <trkpt lat="43.325" lon="2.28835">
        <ele>336.12</ele>
        <time>2014-06-05T13:45:31Z</time>
      </trkpt>
      <trkpt lat="43.32497" lon="2.28843">
        <ele>335.64</ele>
        <time>2014-06-05T13:45:46Z</time>
      </trkpt>
      <trkpt lat="43.32497" lon="2.28843">
        <ele>336.12</ele>
        <time>2014-06-05T13:45:59Z</time>
      </trkpt>
      <trkpt lat="43.32494" lon="2.2884">
        <ele>335.16</ele>
        <time>2014-06-05T13:46:12Z</time>
      </trkpt>
      <trkpt lat="43.32494" lon="2.28841">
        <ele>336.12</ele>
        <time>2014-06-05T13:46:45Z</time>
      </trkpt>
      <trkpt lat="43.32495" lon="2.2884">
        <ele>334.68</ele>
        <time>2014-06-05T13:47:25Z</time>
      </trkpt>
      <trkpt lat="43.32496" lon="2.28842">
        <ele>334.2</ele>
        <time>2014-06-05T13:47:58Z</time>
      </trkpt>
      <trkpt lat="43.32495" lon="2.28842">
        <ele>334.2</ele>
        <time>2014-06-05T13:48:30Z</time>
      </trkpt>
      <trkpt lat="43.32495" lon="2.28842">
        <ele>333.23</ele>
        <time>2014-06-05T13:49:07Z</time>
      </trkpt>
      <trkpt lat="43.32496" lon="2.28841">
        <ele>334.2</ele>
        <time>2014-06-05T13:49:43Z</time>
      </trkpt>
      <trkpt lat="43.32496" lon="2.28842">
        <ele>334.2</ele>
        <time>2014-06-05T13:50:23Z</time>
      </trkpt>
      <trkpt lat="43.32496" lon="2.28843">
        <ele>333.71</ele>
        <time>2014-06-05T13:51:02Z</time>
      </trkpt>
      <trkpt lat="43.32497" lon="2.28842">
        <ele>334.68</ele>
        <time>2014-06-05T13:51:42Z</time>
      </trkpt>
      <trkpt lat="43.32495" lon="2.28841">
        <ele>333.71</ele>
        <time>2014-06-05T13:52:08Z</time>
      </trkpt>
      <trkpt lat="43.32494" lon="2.28843">
        <ele>333.71</ele>
        <time>2014-06-05T13:52:47Z</time>
      </trkpt>
      <trkpt lat="43.32495" lon="2.28845">
        <ele>334.68</ele>
        <time>2014-06-05T13:53:08Z</time>
      </trkpt>
      <trkpt lat="43.32497" lon="2.28835">
        <ele>335.16</ele>
        <time>2014-06-05T13:53:27Z</time>
      </trkpt>
      <trkpt lat="43.32497" lon="2.28838">
        <ele>335.16</ele>
        <time>2014-06-05T13:53:43Z</time>
      </trkpt>
      <trkpt lat="43.32497" lon="2.28842">
        <ele>335.16</ele>
        <time>2014-06-05T13:54:00Z</time>
      </trkpt>
      <trkpt lat="43.32495" lon="2.28838">
        <ele>335.16</ele>
        <time>2014-06-05T13:54:27Z</time>
      </trkpt>
      <trkpt lat="43.32499" lon="2.28832">
        <ele>335.64</ele>
        <time>2014-06-05T13:54:40Z</time>
      </trkpt>
      <trkpt lat="43.32499" lon="2.28836">
        <ele>335.16</ele>
        <time>2014-06-05T13:54:46Z</time>
      </trkpt>
      <trkpt lat="43.32496" lon="2.28837">
        <ele>335.16</ele>
        <time>2014-06-05T13:55:16Z</time>
      </trkpt>
      <trkpt lat="43.32496" lon="2.28841">
        <ele>335.16</ele>
        <time>2014-06-05T13:55:27Z</time>
      </trkpt>
      <trkpt lat="43.32495" lon="2.28841">
        <ele>334.68</ele>
        <time>2014-06-05T13:56:04Z</time>
      </trkpt>
      <trkpt lat="43.32496" lon="2.2884">
        <ele>333.71</ele>
        <time>2014-06-05T13:56:36Z</time>
      </trkpt>
      <trkpt lat="43.32496" lon="2.28838">
        <ele>333.71</ele>
        <time>2014-06-05T13:57:11Z</time>
      </trkpt>
      <trkpt lat="43.32497" lon="2.2884">
        <ele>335.16</ele>
        <time>2014-06-05T13:57:19Z</time>
      </trkpt>
      <trkpt lat="43.32494" lon="2.28842">
        <ele>334.2</ele>
        <time>2014-06-05T13:57:46Z</time>
      </trkpt>
      <trkpt lat="43.32495" lon="2.28842">
        <ele>334.2</ele>
        <time>2014-06-05T13:57:49Z</time>
      </trkpt>
      <trkpt lat="43.32488" lon="2.28868">
        <ele>335.16</ele>
        <time>2014-06-05T13:58:04Z</time>
      </trkpt>
      <trkpt lat="43.32487" lon="2.28869">
        <ele>335.16</ele>
        <time>2014-06-05T13:58:05Z</time>
      </trkpt>
      <trkpt lat="43.32482" lon="2.28885">
        <ele>335.64</ele>
        <time>2014-06-05T13:58:15Z</time>
      </trkpt>
      <trkpt lat="43.32475" lon="2.28906">
        <ele>334.68</ele>
        <time>2014-06-05T13:58:27Z</time>
      </trkpt>
      <trkpt lat="43.32474" lon="2.28909">
        <ele>333.71</ele>
        <time>2014-06-05T13:58:29Z</time>
      </trkpt>
      <trkpt lat="43.32465" lon="2.28938">
        <ele>332.75</ele>
        <time>2014-06-05T13:58:47Z</time>
      </trkpt>
      <trkpt lat="43.32459" lon="2.28956">
        <ele>334.2</ele>
        <time>2014-06-05T13:59:01Z</time>
      </trkpt>
      <trkpt lat="43.32452" lon="2.28979">
        <ele>332.75</ele>
        <time>2014-06-05T13:59:17Z</time>
      </trkpt>
      <trkpt lat="43.32451" lon="2.28982">
        <ele>334.2</ele>
        <time>2014-06-05T13:59:20Z</time>
      </trkpt>
      <trkpt lat="43.32447" lon="2.28991">
        <ele>335.64</ele>
        <time>2014-06-05T13:59:28Z</time>
      </trkpt>
      <trkpt lat="43.32446" lon="2.28993">
        <ele>335.64</ele>
        <time>2014-06-05T13:59:29Z</time>
      </trkpt>
      <trkpt lat="43.32446" lon="2.28994">
        <ele>331.79</ele>
        <time>2014-06-05T13:59:30Z</time>
      </trkpt>
      <trkpt lat="43.32445" lon="2.28996">
        <ele>335.16</ele>
        <time>2014-06-05T13:59:31Z</time>
      </trkpt>
      <trkpt lat="43.32437" lon="2.29016">
        <ele>331.79</ele>
        <time>2014-06-05T13:59:46Z</time>
      </trkpt>
      <trkpt lat="43.3243" lon="2.29036">
        <ele>331.31</ele>
        <time>2014-06-05T14:00:02Z</time>
      </trkpt>
      <trkpt lat="43.32423" lon="2.29054">
        <ele>331.79</ele>
        <time>2014-06-05T14:00:18Z</time>
      </trkpt>
      <trkpt lat="43.32421" lon="2.29058">
        <ele>330.35</ele>
        <time>2014-06-05T14:00:22Z</time>
      </trkpt>
      <trkpt lat="43.32411" lon="2.29083">
        <ele>330.83</ele>
        <time>2014-06-05T14:00:40Z</time>
      </trkpt>
      <trkpt lat="43.32408" lon="2.29089">
        <ele>329.87</ele>
        <time>2014-06-05T14:00:45Z</time>
      </trkpt>
      <trkpt lat="43.32401" lon="2.29107">
        <ele>329.87</ele>
        <time>2014-06-05T14:01:00Z</time>
      </trkpt>
      <trkpt lat="43.32392" lon="2.29124">
        <ele>330.83</ele>
        <time>2014-06-05T14:01:16Z</time>
      </trkpt>
      <trkpt lat="43.32391" lon="2.29125">
        <ele>331.31</ele>
        <time>2014-06-05T14:01:18Z</time>
      </trkpt>
      <trkpt lat="43.32389" lon="2.29127">
        <ele>331.31</ele>
        <time>2014-06-05T14:01:24Z</time>
      </trkpt>
      <trkpt lat="43.32387" lon="2.29132">
        <ele>330.35</ele>
        <time>2014-06-05T14:01:27Z</time>
      </trkpt>
      <trkpt lat="43.32381" lon="2.2914">
        <ele>330.83</ele>
        <time>2014-06-05T14:01:33Z</time>
      </trkpt>
      <trkpt lat="43.32369" lon="2.2916">
        <ele>329.39</ele>
        <time>2014-06-05T14:01:51Z</time>
      </trkpt>
      <trkpt lat="43.32358" lon="2.29173">
        <ele>330.35</ele>
        <time>2014-06-05T14:02:05Z</time>
      </trkpt>
      <trkpt lat="43.32357" lon="2.29174">
        <ele>328.91</ele>
        <time>2014-06-05T14:02:07Z</time>
      </trkpt>
      <trkpt lat="43.32355" lon="2.29177">
        <ele>328.91</ele>
        <time>2014-06-05T14:02:10Z</time>
      </trkpt>
      <trkpt lat="43.32343" lon="2.29192">
        <ele>328.43</ele>
        <time>2014-06-05T14:02:26Z</time>
      </trkpt>
      <trkpt lat="43.32334" lon="2.29205">
        <ele>327.95</ele>
        <time>2014-06-05T14:02:39Z</time>
      </trkpt>
      <trkpt lat="43.32334" lon="2.29205">
        <ele>327.95</ele>
        <time>2014-06-05T14:02:40Z</time>
      </trkpt>
      <trkpt lat="43.32329" lon="2.29213">
        <ele>328.91</ele>
        <time>2014-06-05T14:02:54Z</time>
      </trkpt>
      <trkpt lat="43.32325" lon="2.29219">
        <ele>329.39</ele>
        <time>2014-06-05T14:02:59Z</time>
      </trkpt>
      <trkpt lat="43.32321" lon="2.29226">
        <ele>327.47</ele>
        <time>2014-06-05T14:03:04Z</time>
      </trkpt>
      <trkpt lat="43.3231" lon="2.29246">
        <ele>327.95</ele>
        <time>2014-06-05T14:03:21Z</time>
      </trkpt>
      <trkpt lat="43.32304" lon="2.29258">
        <ele>327.47</ele>
        <time>2014-06-05T14:03:35Z</time>
      </trkpt>
      <trkpt lat="43.32306" lon="2.2926">
        <ele>327.47</ele>
        <time>2014-06-05T14:03:49Z</time>
      </trkpt>
      <trkpt lat="43.32305" lon="2.29259">
        <ele>327.47</ele>
        <time>2014-06-05T14:04:06Z</time>
      </trkpt>
      <trkpt lat="43.32305" lon="2.2926">
        <ele>327.95</ele>
        <time>2014-06-05T14:04:25Z</time>
      </trkpt>
      <trkpt lat="43.32306" lon="2.2926">
        <ele>326.99</ele>
        <time>2014-06-05T14:04:46Z</time>
      </trkpt>
      <trkpt lat="43.32306" lon="2.2926">
        <ele>327.47</ele>
        <time>2014-06-05T14:05:08Z</time>
      </trkpt>
      <trkpt lat="43.32305" lon="2.29259">
        <ele>328.91</ele>
        <time>2014-06-05T14:05:18Z</time>
      </trkpt>
      <trkpt lat="43.32306" lon="2.2926">
        <ele>327.47</ele>
        <time>2014-06-05T14:05:36Z</time>
      </trkpt>
      <trkpt lat="43.32304" lon="2.29258">
        <ele>326.99</ele>
        <time>2014-06-05T14:05:55Z</time>
      </trkpt>
      <trkpt lat="43.32302" lon="2.29261">
        <ele>326.99</ele>
        <time>2014-06-05T14:06:10Z</time>
      </trkpt>
      <trkpt lat="43.32293" lon="2.29278">
        <ele>326.5</ele>
        <time>2014-06-05T14:06:22Z</time>
      </trkpt>
      <trkpt lat="43.32283" lon="2.29292">
        <ele>326.5</ele>
        <time>2014-06-05T14:06:34Z</time>
      </trkpt>
      <trkpt lat="43.32281" lon="2.29296">
        <ele>327.95</ele>
        <time>2014-06-05T14:06:38Z</time>
      </trkpt>
      <trkpt lat="43.32278" lon="2.29301">
        <ele>326.5</ele>
        <time>2014-06-05T14:06:41Z</time>
      </trkpt>
      <trkpt lat="43.32276" lon="2.29303">
        <ele>327.47</ele>
        <time>2014-06-05T14:06:44Z</time>
      </trkpt>
      <trkpt lat="43.32275" lon="2.29306">
        <ele>326.5</ele>
        <time>2014-06-05T14:06:46Z</time>
      </trkpt>
      <trkpt lat="43.3227" lon="2.29316">
        <ele>326.99</ele>
        <time>2014-06-05T14:06:56Z</time>
      </trkpt>
      <trkpt lat="43.32263" lon="2.29328">
        <ele>326.5</ele>
        <time>2014-06-05T14:07:06Z</time>
      </trkpt>
      <trkpt lat="43.32262" lon="2.2933">
        <ele>325.54</ele>
        <time>2014-06-05T14:07:08Z</time>
      </trkpt>
      <trkpt lat="43.32255" lon="2.29346">
        <ele>325.06</ele>
        <time>2014-06-05T14:07:24Z</time>
      </trkpt>
      <trkpt lat="43.32251" lon="2.29351">
        <ele>324.58</ele>
        <time>2014-06-05T14:07:47Z</time>
      </trkpt>
      <trkpt lat="43.32248" lon="2.29357">
        <ele>326.02</ele>
        <time>2014-06-05T14:07:52Z</time>
      </trkpt>
      <trkpt lat="43.32248" lon="2.29365">
        <ele>324.58</ele>
        <time>2014-06-05T14:07:57Z</time>
      </trkpt>
      <trkpt lat="43.32258" lon="2.29381">
        <ele>324.58</ele>
        <time>2014-06-05T14:08:13Z</time>
      </trkpt>
      <trkpt lat="43.32267" lon="2.29391">
        <ele>325.06</ele>
        <time>2014-06-05T14:08:24Z</time>
      </trkpt>
      <trkpt lat="43.32273" lon="2.29399">
        <ele>324.58</ele>
        <time>2014-06-05T14:08:34Z</time>
      </trkpt>
      <trkpt lat="43.32274" lon="2.294">
        <ele>324.58</ele>
        <time>2014-06-05T14:08:35Z</time>
      </trkpt>
      <trkpt lat="43.32278" lon="2.29404">
        <ele>325.06</ele>
        <time>2014-06-05T14:08:41Z</time>
      </trkpt>
      <trkpt lat="43.3228" lon="2.29406">
        <ele>324.1</ele>
        <time>2014-06-05T14:08:43Z</time>
      </trkpt>
      <trkpt lat="43.32282" lon="2.29408">
        <ele>324.1</ele>
        <time>2014-06-05T14:08:46Z</time>
      </trkpt>
      <trkpt lat="43.32288" lon="2.29417">
        <ele>324.58</ele>
        <time>2014-06-05T14:08:56Z</time>
      </trkpt>
      <trkpt lat="43.32292" lon="2.29423">
        <ele>323.62</ele>
        <time>2014-06-05T14:09:02Z</time>
      </trkpt>
      <trkpt lat="43.32294" lon="2.29424">
        <ele>323.62</ele>
        <time>2014-06-05T14:09:05Z</time>
      </trkpt>
      <trkpt lat="43.32302" lon="2.29435">
        <ele>322.66</ele>
        <time>2014-06-05T14:09:16Z</time>
      </trkpt>
      <trkpt lat="43.32309" lon="2.29439">
        <ele>321.22</ele>
        <time>2014-06-05T14:09:27Z</time>
      </trkpt>
      <trkpt lat="43.32316" lon="2.29441">
        <ele>321.22</ele>
        <time>2014-06-05T14:09:36Z</time>
      </trkpt>
      <trkpt lat="43.32322" lon="2.29441">
        <ele>320.74</ele>
        <time>2014-06-05T14:09:42Z</time>
      </trkpt>
      <trkpt lat="43.32329" lon="2.2944">
        <ele>320.26</ele>
        <time>2014-06-05T14:09:49Z</time>
      </trkpt>
      <trkpt lat="43.32332" lon="2.29442">
        <ele>319.78</ele>
        <time>2014-06-05T14:09:54Z</time>
      </trkpt>
      <trkpt lat="43.32338" lon="2.29447">
        <ele>318.81</ele>
        <time>2014-06-05T14:10:05Z</time>
      </trkpt>
      <trkpt lat="43.32338" lon="2.29448">
        <ele>318.33</ele>
        <time>2014-06-05T14:10:07Z</time>
      </trkpt>
      <trkpt lat="43.32336" lon="2.29453">
        <ele>317.37</ele>
        <time>2014-06-05T14:10:23Z</time>
      </trkpt>
      <trkpt lat="43.32339" lon="2.29465">
        <ele>316.41</ele>
        <time>2014-06-05T14:10:36Z</time>
      </trkpt>
      <trkpt lat="43.32339" lon="2.29474">
        <ele>314.97</ele>
        <time>2014-06-05T14:10:46Z</time>
      </trkpt>
      <trkpt lat="43.32338" lon="2.29488">
        <ele>314.49</ele>
        <time>2014-06-05T14:10:58Z</time>
      </trkpt>
      <trkpt lat="43.32337" lon="2.295">
        <ele>312.57</ele>
        <time>2014-06-05T14:11:09Z</time>
      </trkpt>
      <trkpt lat="43.32337" lon="2.29507">
        <ele>312.09</ele>
        <time>2014-06-05T14:11:20Z</time>
      </trkpt>
      <trkpt lat="43.32336" lon="2.29517">
        <ele>310.16</ele>
        <time>2014-06-05T14:11:30Z</time>
      </trkpt>
      <trkpt lat="43.32336" lon="2.29525">
        <ele>309.68</ele>
        <time>2014-06-05T14:11:39Z</time>
      </trkpt>
      <trkpt lat="43.32337" lon="2.29534">
        <ele>308.72</ele>
        <time>2014-06-05T14:11:46Z</time>
      </trkpt>
      <trkpt lat="43.32336" lon="2.29542">
        <ele>308.24</ele>
        <time>2014-06-05T14:11:58Z</time>
      </trkpt>
      <trkpt lat="43.32336" lon="2.29548">
        <ele>306.8</ele>
        <time>2014-06-05T14:12:12Z</time>
      </trkpt>
      <trkpt lat="43.32335" lon="2.29556">
        <ele>305.84</ele>
        <time>2014-06-05T14:12:27Z</time>
      </trkpt>
      <trkpt lat="43.32334" lon="2.29557">
        <ele>306.32</ele>
        <time>2014-06-05T14:12:45Z</time>
      </trkpt>
      <trkpt lat="43.32335" lon="2.29556">
        <ele>306.8</ele>
        <time>2014-06-05T14:13:01Z</time>
      </trkpt>
      <trkpt lat="43.32335" lon="2.29556">
        <ele>306.32</ele>
        <time>2014-06-05T14:13:20Z</time>
      </trkpt>
      <trkpt lat="43.32336" lon="2.29557">
        <ele>305.84</ele>
        <time>2014-06-05T14:13:38Z</time>
      </trkpt>
      <trkpt lat="43.32336" lon="2.29559">
        <ele>305.84</ele>
        <time>2014-06-05T14:14:12Z</time>
      </trkpt>
      <trkpt lat="43.32336" lon="2.29558">
        <ele>305.36</ele>
        <time>2014-06-05T14:14:47Z</time>
      </trkpt>
      <trkpt lat="43.32337" lon="2.29561">
        <ele>306.32</ele>
        <time>2014-06-05T14:15:04Z</time>
      </trkpt>
      <trkpt lat="43.32335" lon="2.2957">
        <ele>305.36</ele>
        <time>2014-06-05T14:15:18Z</time>
      </trkpt>
      <trkpt lat="43.32318" lon="2.29585">
        <ele>302.95</ele>
        <time>2014-06-05T14:15:35Z</time>
      </trkpt>
      <trkpt lat="43.32302" lon="2.29596">
        <ele>301.99</ele>
        <time>2014-06-05T14:15:51Z</time>
      </trkpt>
      <trkpt lat="43.32293" lon="2.29604">
        <ele>300.55</ele>
        <time>2014-06-05T14:16:00Z</time>
      </trkpt>
      <trkpt lat="43.32282" lon="2.29629">
        <ele>298.15</ele>
        <time>2014-06-05T14:16:17Z</time>
      </trkpt>
      <trkpt lat="43.32274" lon="2.2965">
        <ele>296.22</ele>
        <time>2014-06-05T14:16:31Z</time>
      </trkpt>
      <trkpt lat="43.32263" lon="2.29675">
        <ele>294.78</ele>
        <time>2014-06-05T14:16:48Z</time>
      </trkpt>
      <trkpt lat="43.32255" lon="2.29695">
        <ele>293.82</ele>
        <time>2014-06-05T14:17:05Z</time>
      </trkpt>
      <trkpt lat="43.32251" lon="2.29711">
        <ele>293.34</ele>
        <time>2014-06-05T14:17:18Z</time>
      </trkpt>
      <trkpt lat="43.32245" lon="2.29725">
        <ele>292.38</ele>
        <time>2014-06-05T14:17:31Z</time>
      </trkpt>
      <trkpt lat="43.32238" lon="2.29739">
        <ele>290.94</ele>
        <time>2014-06-05T14:17:46Z</time>
      </trkpt>
      <trkpt lat="43.3223" lon="2.29751">
        <ele>289.97</ele>
        <time>2014-06-05T14:18:04Z</time>
      </trkpt>
      <trkpt lat="43.32226" lon="2.29763">
        <ele>289.49</ele>
        <time>2014-06-05T14:18:17Z</time>
      </trkpt>
      <trkpt lat="43.32223" lon="2.29769">
        <ele>289.01</ele>
        <time>2014-06-05T14:18:23Z</time>
      </trkpt>
      <trkpt lat="43.3222" lon="2.29787">
        <ele>287.09</ele>
        <time>2014-06-05T14:18:38Z</time>
      </trkpt>
      <trkpt lat="43.32219" lon="2.29799">
        <ele>286.61</ele>
        <time>2014-06-05T14:18:47Z</time>
      </trkpt>
      <trkpt lat="43.32221" lon="2.29804">
        <ele>286.13</ele>
        <time>2014-06-05T14:19:03Z</time>
      </trkpt>
      <trkpt lat="43.32227" lon="2.29813">
        <ele>283.73</ele>
        <time>2014-06-05T14:19:20Z</time>
      </trkpt>
      <trkpt lat="43.32236" lon="2.29825">
        <ele>283.25</ele>
        <time>2014-06-05T14:19:37Z</time>
      </trkpt>
      <trkpt lat="43.32239" lon="2.29828">
        <ele>282.77</ele>
        <time>2014-06-05T14:19:54Z</time>
      </trkpt>
      <trkpt lat="43.32239" lon="2.29826">
        <ele>282.77</ele>
        <time>2014-06-05T14:20:10Z</time>
      </trkpt>
      <trkpt lat="43.32238" lon="2.29826">
        <ele>282.77</ele>
        <time>2014-06-05T14:20:30Z</time>
      </trkpt>
      <trkpt lat="43.32239" lon="2.29828">
        <ele>282.77</ele>
        <time>2014-06-05T14:20:51Z</time>
      </trkpt>
      <trkpt lat="43.32237" lon="2.29827">
        <ele>282.28</ele>
        <time>2014-06-05T14:21:13Z</time>
      </trkpt>
      <trkpt lat="43.32239" lon="2.29827">
        <ele>282.28</ele>
        <time>2014-06-05T14:21:36Z</time>
      </trkpt>
      <trkpt lat="43.32239" lon="2.29827">
        <ele>282.28</ele>
        <time>2014-06-05T14:21:55Z</time>
      </trkpt>
      <trkpt lat="43.32239" lon="2.29827">
        <ele>282.28</ele>
        <time>2014-06-05T14:22:20Z</time>
      </trkpt>
      <trkpt lat="43.32239" lon="2.29827">
        <ele>282.77</ele>
        <time>2014-06-05T14:22:32Z</time>
      </trkpt>
      <trkpt lat="43.32235" lon="2.29826">
        <ele>282.28</ele>
        <time>2014-06-05T14:22:44Z</time>
      </trkpt>
      <trkpt lat="43.32238" lon="2.29828">
        <ele>281.8</ele>
        <time>2014-06-05T14:22:59Z</time>
      </trkpt>
      <trkpt lat="43.32237" lon="2.29829">
        <ele>281.8</ele>
        <time>2014-06-05T14:23:16Z</time>
      </trkpt>
      <trkpt lat="43.32237" lon="2.29828">
        <ele>281.32</ele>
        <time>2014-06-05T14:23:42Z</time>
      </trkpt>
      <trkpt lat="43.32238" lon="2.29825">
        <ele>281.32</ele>
        <time>2014-06-05T14:24:05Z</time>
      </trkpt>
      <trkpt lat="43.32238" lon="2.29827">
        <ele>281.8</ele>
        <time>2014-06-05T14:24:23Z</time>
      </trkpt>
      <trkpt lat="43.32239" lon="2.29828">
        <ele>281.8</ele>
        <time>2014-06-05T14:24:35Z</time>
      </trkpt>
      <trkpt lat="43.32239" lon="2.29828">
        <ele>282.28</ele>
        <time>2014-06-05T14:24:48Z</time>
      </trkpt>
      <trkpt lat="43.32237" lon="2.29831">
        <ele>281.8</ele>
        <time>2014-06-05T14:25:01Z</time>
      </trkpt>
      <trkpt lat="43.32238" lon="2.29832">
        <ele>281.32</ele>
        <time>2014-06-05T14:25:06Z</time>
      </trkpt>
      <trkpt lat="43.3225" lon="2.29843">
        <ele>280.36</ele>
        <time>2014-06-05T14:25:21Z</time>
      </trkpt>
      <trkpt lat="43.3226" lon="2.29853">
        <ele>278.44</ele>
        <time>2014-06-05T14:25:39Z</time>
      </trkpt>
      <trkpt lat="43.32264" lon="2.29857">
        <ele>278.44</ele>
        <time>2014-06-05T14:25:46Z</time>
      </trkpt>
      <trkpt lat="43.32272" lon="2.29862">
        <ele>277.48</ele>
        <time>2014-06-05T14:25:55Z</time>
      </trkpt>
      <trkpt lat="43.32282" lon="2.2987">
        <ele>276.52</ele>
        <time>2014-06-05T14:26:10Z</time>
      </trkpt>
      <trkpt lat="43.32289" lon="2.29877">
        <ele>275.07</ele>
        <time>2014-06-05T14:26:25Z</time>
      </trkpt>
      <trkpt lat="43.3229" lon="2.29879">
        <ele>275.07</ele>
        <time>2014-06-05T14:26:37Z</time>
      </trkpt>
      <trkpt lat="43.32291" lon="2.2988">
        <ele>274.59</ele>
        <time>2014-06-05T14:26:41Z</time>
      </trkpt>
      <trkpt lat="43.32296" lon="2.29887">
        <ele>275.07</ele>
        <time>2014-06-05T14:26:48Z</time>
      </trkpt>
      <trkpt lat="43.32302" lon="2.29913">
        <ele>274.59</ele>
        <time>2014-06-05T14:27:05Z</time>
      </trkpt>
      <trkpt lat="43.32298" lon="2.29933">
        <ele>273.63</ele>
        <time>2014-06-05T14:27:21Z</time>
      </trkpt>
      <trkpt lat="43.32299" lon="2.29951">
        <ele>273.63</ele>
        <time>2014-06-05T14:27:36Z</time>
      </trkpt>
      <trkpt lat="43.32301" lon="2.29962">
        <ele>273.63</ele>
        <time>2014-06-05T14:27:48Z</time>
      </trkpt>
      <trkpt lat="43.32297" lon="2.29972">
        <ele>272.67</ele>
        <time>2014-06-05T14:27:59Z</time>
      </trkpt>
      <trkpt lat="43.323" lon="2.29984">
        <ele>273.63</ele>
        <time>2014-06-05T14:28:09Z</time>
      </trkpt>
      <trkpt lat="43.32304" lon="2.30009">
        <ele>273.15</ele>
        <time>2014-06-05T14:28:27Z</time>
      </trkpt>
      <trkpt lat="43.32305" lon="2.30014">
        <ele>271.71</ele>
        <time>2014-06-05T14:28:31Z</time>
      </trkpt>
      <trkpt lat="43.32307" lon="2.30035">
        <ele>273.15</ele>
        <time>2014-06-05T14:28:47Z</time>
      </trkpt>
      <trkpt lat="43.32308" lon="2.30037">
        <ele>274.11</ele>
        <time>2014-06-05T14:28:57Z</time>
      </trkpt>
      <trkpt lat="43.32323" lon="2.30039">
        <ele>273.63</ele>
        <time>2014-06-05T14:29:13Z</time>
      </trkpt>
      <trkpt lat="43.32326" lon="2.30039">
        <ele>274.11</ele>
        <time>2014-06-05T14:29:24Z</time>
      </trkpt>
      <trkpt lat="43.32323" lon="2.30039">
        <ele>274.11</ele>
        <time>2014-06-05T14:29:36Z</time>
      </trkpt>
      <trkpt lat="43.3232" lon="2.30042">
        <ele>274.59</ele>
        <time>2014-06-05T14:29:45Z</time>
      </trkpt>
      <trkpt lat="43.32309" lon="2.30044">
        <ele>272.67</ele>
        <time>2014-06-05T14:29:58Z</time>
      </trkpt>
      <trkpt lat="43.32309" lon="2.30057">
        <ele>273.15</ele>
        <time>2014-06-05T14:30:09Z</time>
      </trkpt>
      <trkpt lat="43.32311" lon="2.30066">
        <ele>274.11</ele>
        <time>2014-06-05T14:30:18Z</time>
      </trkpt>
      <trkpt lat="43.32312" lon="2.30069">
        <ele>274.11</ele>
        <time>2014-06-05T14:30:33Z</time>
      </trkpt>
      <trkpt lat="43.32316" lon="2.30087">
        <ele>272.67</ele>
        <time>2014-06-05T14:30:48Z</time>
      </trkpt>
      <trkpt lat="43.32317" lon="2.30098">
        <ele>271.23</ele>
        <time>2014-06-05T14:31:04Z</time>
      </trkpt>
      <trkpt lat="43.32321" lon="2.30114">
        <ele>270.27</ele>
        <time>2014-06-05T14:31:18Z</time>
      </trkpt>
      <trkpt lat="43.32324" lon="2.30126">
        <ele>270.27</ele>
        <time>2014-06-05T14:31:30Z</time>
      </trkpt>
      <trkpt lat="43.32327" lon="2.30132">
        <ele>270.27</ele>
        <time>2014-06-05T14:31:43Z</time>
      </trkpt>
      <trkpt lat="43.32332" lon="2.30135">
        <ele>269.31</ele>
        <time>2014-06-05T14:32:00Z</time>
      </trkpt>
      <trkpt lat="43.32332" lon="2.30136">
        <ele>269.31</ele>
        <time>2014-06-05T14:32:01Z</time>
      </trkpt>
      <trkpt lat="43.32343" lon="2.30145">
        <ele>266.9</ele>
        <time>2014-06-05T14:32:15Z</time>
      </trkpt>
      <trkpt lat="43.32357" lon="2.30149">
        <ele>265.46</ele>
        <time>2014-06-05T14:32:31Z</time>
      </trkpt>
      <trkpt lat="43.32365" lon="2.30152">
        <ele>264.02</ele>
        <time>2014-06-05T14:32:46Z</time>
      </trkpt>
      <trkpt lat="43.32372" lon="2.30148">
        <ele>263.54</ele>
        <time>2014-06-05T14:32:53Z</time>
      </trkpt>
      <trkpt lat="43.32385" lon="2.30139">
        <ele>262.1</ele>
        <time>2014-06-05T14:33:09Z</time>
      </trkpt>
      <trkpt lat="43.32393" lon="2.3012">
        <ele>260.17</ele>
        <time>2014-06-05T14:33:28Z</time>
      </trkpt>
      <trkpt lat="43.32402" lon="2.301">
        <ele>259.21</ele>
        <time>2014-06-05T14:33:46Z</time>
      </trkpt>
      <trkpt lat="43.32407" lon="2.30085">
        <ele>258.73</ele>
        <time>2014-06-05T14:33:59Z</time>
      </trkpt>
      <trkpt lat="43.32416" lon="2.30072">
        <ele>257.77</ele>
        <time>2014-06-05T14:34:19Z</time>
      </trkpt>
      <trkpt lat="43.32418" lon="2.30075">
        <ele>257.77</ele>
        <time>2014-06-05T14:34:35Z</time>
      </trkpt>
      <trkpt lat="43.32413" lon="2.30057">
        <ele>257.77</ele>
        <time>2014-06-05T14:34:51Z</time>
      </trkpt>
      <trkpt lat="43.32412" lon="2.30058">
        <ele>258.25</ele>
        <time>2014-06-05T14:35:08Z</time>
      </trkpt>
      <trkpt lat="43.32411" lon="2.30062">
        <ele>257.77</ele>
        <time>2014-06-05T14:35:22Z</time>
      </trkpt>
      <trkpt lat="43.32415" lon="2.30065">
        <ele>257.77</ele>
        <time>2014-06-05T14:35:38Z</time>
      </trkpt>
      <trkpt lat="43.3242" lon="2.30074">
        <ele>257.77</ele>
        <time>2014-06-05T14:35:54Z</time>
      </trkpt>
      <trkpt lat="43.32423" lon="2.30069">
        <ele>257.77</ele>
        <time>2014-06-05T14:36:08Z</time>
      </trkpt>
      <trkpt lat="43.32422" lon="2.3007">
        <ele>256.81</ele>
        <time>2014-06-05T14:36:24Z</time>
      </trkpt>
      <trkpt lat="43.32427" lon="2.30073">
        <ele>257.77</ele>
        <time>2014-06-05T14:36:48Z</time>
      </trkpt>
      <trkpt lat="43.32424" lon="2.30073">
        <ele>257.77</ele>
        <time>2014-06-05T14:37:03Z</time>
      </trkpt>
      <trkpt lat="43.32421" lon="2.30072">
        <ele>258.25</ele>
        <time>2014-06-05T14:37:25Z</time>
      </trkpt>
      <trkpt lat="43.32423" lon="2.30077">
        <ele>258.25</ele>
        <time>2014-06-05T14:37:40Z</time>
      </trkpt>
      <trkpt lat="43.3243" lon="2.30088">
        <ele>258.25</ele>
        <time>2014-06-05T14:38:00Z</time>
      </trkpt>
      <trkpt lat="43.32436" lon="2.30092">
        <ele>258.73</ele>
        <time>2014-06-05T14:38:09Z</time>
      </trkpt>
      <trkpt lat="43.32453" lon="2.30098">
        <ele>259.69</ele>
        <time>2014-06-05T14:38:27Z</time>
      </trkpt>
      <trkpt lat="43.32465" lon="2.30108">
        <ele>260.65</ele>
        <time>2014-06-05T14:38:41Z</time>
      </trkpt>
      <trkpt lat="43.32476" lon="2.30109">
        <ele>261.14</ele>
        <time>2014-06-05T14:38:54Z</time>
      </trkpt>
      <trkpt lat="43.32489" lon="2.301">
        <ele>263.06</ele>
        <time>2014-06-05T14:39:10Z</time>
      </trkpt>
      <trkpt lat="43.32501" lon="2.30087">
        <ele>264.02</ele>
        <time>2014-06-05T14:39:25Z</time>
      </trkpt>
      <trkpt lat="43.32502" lon="2.30086">
        <ele>264.5</ele>
        <time>2014-06-05T14:39:27Z</time>
      </trkpt>
      <trkpt lat="43.32508" lon="2.3008">
        <ele>265.46</ele>
        <time>2014-06-05T14:39:33Z</time>
      </trkpt>
      <trkpt lat="43.32521" lon="2.30068">
        <ele>266.9</ele>
        <time>2014-06-05T14:39:50Z</time>
      </trkpt>
      <trkpt lat="43.3253" lon="2.3006">
        <ele>267.86</ele>
        <time>2014-06-05T14:40:03Z</time>
      </trkpt>
      <trkpt lat="43.32541" lon="2.3005">
        <ele>269.31</ele>
        <time>2014-06-05T14:40:19Z</time>
      </trkpt>
      <trkpt lat="43.32553" lon="2.30035">
        <ele>270.27</ele>
        <time>2014-06-05T14:40:37Z</time>
      </trkpt>
      <trkpt lat="43.32554" lon="2.30029">
        <ele>271.23</ele>
        <time>2014-06-05T14:40:48Z</time>
      </trkpt>
      <trkpt lat="43.32561" lon="2.30019">
        <ele>272.19</ele>
        <time>2014-06-05T14:41:02Z</time>
      </trkpt>
      <trkpt lat="43.32564" lon="2.30013">
        <ele>272.67</ele>
        <time>2014-06-05T14:41:07Z</time>
      </trkpt>
      <trkpt lat="43.32568" lon="2.30009">
        <ele>272.67</ele>
        <time>2014-06-05T14:41:12Z</time>
      </trkpt>
      <trkpt lat="43.32577" lon="2.30013">
        <ele>274.11</ele>
        <time>2014-06-05T14:41:25Z</time>
      </trkpt>
      <trkpt lat="43.3257" lon="2.30027">
        <ele>275.56</ele>
        <time>2014-06-05T14:41:40Z</time>
      </trkpt>
      <trkpt lat="43.32565" lon="2.30036">
        <ele>275.56</ele>
        <time>2014-06-05T14:41:51Z</time>
      </trkpt>
      <trkpt lat="43.32558" lon="2.30047">
        <ele>276.04</ele>
        <time>2014-06-05T14:42:03Z</time>
      </trkpt>
      <trkpt lat="43.32557" lon="2.30051">
        <ele>276.52</ele>
        <time>2014-06-05T14:42:08Z</time>
      </trkpt>
      <trkpt lat="43.32548" lon="2.30064">
        <ele>277</ele>
        <time>2014-06-05T14:42:22Z</time>
      </trkpt>
      <trkpt lat="43.32538" lon="2.30076">
        <ele>278.92</ele>
        <time>2014-06-05T14:42:37Z</time>
      </trkpt>
      <trkpt lat="43.32531" lon="2.30091">
        <ele>279.88</ele>
        <time>2014-06-05T14:42:51Z</time>
      </trkpt>
      <trkpt lat="43.32533" lon="2.30093">
        <ele>279.4</ele>
        <time>2014-06-05T14:42:55Z</time>
      </trkpt>
      <trkpt lat="43.32544" lon="2.30091">
        <ele>281.8</ele>
        <time>2014-06-05T14:43:11Z</time>
      </trkpt>
      <trkpt lat="43.32548" lon="2.30082">
        <ele>281.8</ele>
        <time>2014-06-05T14:43:27Z</time>
      </trkpt>
      <trkpt lat="43.32559" lon="2.30073">
        <ele>282.77</ele>
        <time>2014-06-05T14:43:40Z</time>
      </trkpt>
      <trkpt lat="43.32568" lon="2.30065">
        <ele>283.73</ele>
        <time>2014-06-05T14:43:53Z</time>
      </trkpt>
      <trkpt lat="43.32579" lon="2.30058">
        <ele>284.69</ele>
        <time>2014-06-05T14:44:09Z</time>
      </trkpt>
      <trkpt lat="43.32589" lon="2.30051">
        <ele>286.61</ele>
        <time>2014-06-05T14:44:23Z</time>
      </trkpt>
      <trkpt lat="43.326" lon="2.30045">
        <ele>287.57</ele>
        <time>2014-06-05T14:44:37Z</time>
      </trkpt>
      <trkpt lat="43.32612" lon="2.30038">
        <ele>289.01</ele>
        <time>2014-06-05T14:44:54Z</time>
      </trkpt>
      <trkpt lat="43.32626" lon="2.30033">
        <ele>290.46</ele>
        <time>2014-06-05T14:45:10Z</time>
      </trkpt>
      <trkpt lat="43.32637" lon="2.30037">
        <ele>290.94</ele>
        <time>2014-06-05T14:45:25Z</time>
      </trkpt>
      <trkpt lat="43.32638" lon="2.30037">
        <ele>290.94</ele>
        <time>2014-06-05T14:45:37Z</time>
      </trkpt>
      <trkpt lat="43.32639" lon="2.30046">
        <ele>291.9</ele>
        <time>2014-06-05T14:45:51Z</time>
      </trkpt>
      <trkpt lat="43.3264" lon="2.3005">
        <ele>292.38</ele>
        <time>2014-06-05T14:46:02Z</time>
      </trkpt>
      <trkpt lat="43.32636" lon="2.30056">
        <ele>292.86</ele>
        <time>2014-06-05T14:46:18Z</time>
      </trkpt>
      <trkpt lat="43.32633" lon="2.30044">
        <ele>291.9</ele>
        <time>2014-06-05T14:46:34Z</time>
      </trkpt>
      <trkpt lat="43.32636" lon="2.30038">
        <ele>291.9</ele>
        <time>2014-06-05T14:46:49Z</time>
      </trkpt>
      <trkpt lat="43.32633" lon="2.30039">
        <ele>291.42</ele>
        <time>2014-06-05T14:47:04Z</time>
      </trkpt>
      <trkpt lat="43.32634" lon="2.30041">
        <ele>291.9</ele>
        <time>2014-06-05T14:47:20Z</time>
      </trkpt>
      <trkpt lat="43.32633" lon="2.30044">
        <ele>291.9</ele>
        <time>2014-06-05T14:47:37Z</time>
      </trkpt>
      <trkpt lat="43.32636" lon="2.30048">
        <ele>291.9</ele>
        <time>2014-06-05T14:47:58Z</time>
      </trkpt>
      <trkpt lat="43.32633" lon="2.30042">
        <ele>292.38</ele>
        <time>2014-06-05T14:48:19Z</time>
      </trkpt>
      <trkpt lat="43.32636" lon="2.30047">
        <ele>292.38</ele>
        <time>2014-06-05T14:48:41Z</time>
      </trkpt>
      <trkpt lat="43.32634" lon="2.30041">
        <ele>292.38</ele>
        <time>2014-06-05T14:49:01Z</time>
      </trkpt>
      <trkpt lat="43.32638" lon="2.30044">
        <ele>291.42</ele>
        <time>2014-06-05T14:49:21Z</time>
      </trkpt>
      <trkpt lat="43.32639" lon="2.3005">
        <ele>291.9</ele>
        <time>2014-06-05T14:49:37Z</time>
      </trkpt>
      <trkpt lat="43.32639" lon="2.30053">
        <ele>291.9</ele>
        <time>2014-06-05T14:49:52Z</time>
      </trkpt>
      <trkpt lat="43.3264" lon="2.30054">
        <ele>291.9</ele>
        <time>2014-06-05T14:50:03Z</time>
      </trkpt>
      <trkpt lat="43.32641" lon="2.30054">
        <ele>292.38</ele>
        <time>2014-06-05T14:50:17Z</time>
      </trkpt>
      <trkpt lat="43.32642" lon="2.30058">
        <ele>292.86</ele>
        <time>2014-06-05T14:50:30Z</time>
      </trkpt>
      <trkpt lat="43.32641" lon="2.30058">
        <ele>292.38</ele>
        <time>2014-06-05T14:50:56Z</time>
      </trkpt>
      <trkpt lat="43.32637" lon="2.3006">
        <ele>292.38</ele>
        <time>2014-06-05T14:51:23Z</time>
      </trkpt>
      <trkpt lat="43.32634" lon="2.30057">
        <ele>291.9</ele>
        <time>2014-06-05T14:51:38Z</time>
      </trkpt>
      <trkpt lat="43.32637" lon="2.30055">
        <ele>292.86</ele>
        <time>2014-06-05T14:51:47Z</time>
      </trkpt>
      <trkpt lat="43.32642" lon="2.30066">
        <ele>294.3</ele>
        <time>2014-06-05T14:51:56Z</time>
      </trkpt>
      <trkpt lat="43.32644" lon="2.30088">
        <ele>295.74</ele>
        <time>2014-06-05T14:52:11Z</time>
      </trkpt>
      <trkpt lat="43.32645" lon="2.30103">
        <ele>296.7</ele>
        <time>2014-06-05T14:52:21Z</time>
      </trkpt>
      <trkpt lat="43.32652" lon="2.30124">
        <ele>298.63</ele>
        <time>2014-06-05T14:52:37Z</time>
      </trkpt>
      <trkpt lat="43.32656" lon="2.30142">
        <ele>299.59</ele>
        <time>2014-06-05T14:52:50Z</time>
      </trkpt>
      <trkpt lat="43.32662" lon="2.30168">
        <ele>300.55</ele>
        <time>2014-06-05T14:53:08Z</time>
      </trkpt>
      <trkpt lat="43.32669" lon="2.30189">
        <ele>302.47</ele>
        <time>2014-06-05T14:53:24Z</time>
      </trkpt>
      <trkpt lat="43.32675" lon="2.30203">
        <ele>304.39</ele>
        <time>2014-06-05T14:53:36Z</time>
      </trkpt>
      <trkpt lat="43.32683" lon="2.30216">
        <ele>304.88</ele>
        <time>2014-06-05T14:53:49Z</time>
      </trkpt>
      <trkpt lat="43.32693" lon="2.30239">
        <ele>307.76</ele>
        <time>2014-06-05T14:54:10Z</time>
      </trkpt>
      <trkpt lat="43.3271" lon="2.30248">
        <ele>308.72</ele>
        <time>2014-06-05T14:54:29Z</time>
      </trkpt>
      <trkpt lat="43.32714" lon="2.30251">
        <ele>309.68</ele>
        <time>2014-06-05T14:54:45Z</time>
      </trkpt>
      <trkpt lat="43.32713" lon="2.30255">
        <ele>309.68</ele>
        <time>2014-06-05T14:55:08Z</time>
      </trkpt>
      <trkpt lat="43.32709" lon="2.30258">
        <ele>309.68</ele>
        <time>2014-06-05T14:55:35Z</time>
      </trkpt>
      <trkpt lat="43.32711" lon="2.30259">
        <ele>310.64</ele>
        <time>2014-06-05T14:55:54Z</time>
      </trkpt>
      <trkpt lat="43.32718" lon="2.3026">
        <ele>310.64</ele>
        <time>2014-06-05T14:56:05Z</time>
      </trkpt>
      <trkpt lat="43.32726" lon="2.30261">
        <ele>312.09</ele>
        <time>2014-06-05T14:56:19Z</time>
      </trkpt>
      <trkpt lat="43.32741" lon="2.30265">
        <ele>313.53</ele>
        <time>2014-06-05T14:56:35Z</time>
      </trkpt>
      <trkpt lat="43.32751" lon="2.30271">
        <ele>314.01</ele>
        <time>2014-06-05T14:56:51Z</time>
      </trkpt>
      <trkpt lat="43.32763" lon="2.30273">
        <ele>314.97</ele>
        <time>2014-06-05T14:57:07Z</time>
      </trkpt>
      <trkpt lat="43.32775" lon="2.30281">
        <ele>316.41</ele>
        <time>2014-06-05T14:57:20Z</time>
      </trkpt>
      <trkpt lat="43.32779" lon="2.30289">
        <ele>317.37</ele>
        <time>2014-06-05T14:57:35Z</time>
      </trkpt>
      <trkpt lat="43.32778" lon="2.30297">
        <ele>317.37</ele>
        <time>2014-06-05T14:57:58Z</time>
      </trkpt>
      <trkpt lat="43.3278" lon="2.30294">
        <ele>316.89</ele>
        <time>2014-06-05T14:58:21Z</time>
      </trkpt>
      <trkpt lat="43.32781" lon="2.30296">
        <ele>317.37</ele>
        <time>2014-06-05T14:58:25Z</time>
      </trkpt>
      <trkpt lat="43.32802" lon="2.30312">
        <ele>318.81</ele>
        <time>2014-06-05T14:58:42Z</time>
      </trkpt>
      <trkpt lat="43.32817" lon="2.30321">
        <ele>320.74</ele>
        <time>2014-06-05T14:58:57Z</time>
      </trkpt>
      <trkpt lat="43.32822" lon="2.30324">
        <ele>321.22</ele>
        <time>2014-06-05T14:59:01Z</time>
      </trkpt>
      <trkpt lat="43.32836" lon="2.30331">
        <ele>323.62</ele>
        <time>2014-06-05T14:59:14Z</time>
      </trkpt>
      <trkpt lat="43.32839" lon="2.30331">
        <ele>323.14</ele>
        <time>2014-06-05T14:59:16Z</time>
      </trkpt>
      <trkpt lat="43.32843" lon="2.30332">
        <ele>323.62</ele>
        <time>2014-06-05T14:59:20Z</time>
      </trkpt>
      <trkpt lat="43.32846" lon="2.30335">
        <ele>324.1</ele>
        <time>2014-06-05T14:59:24Z</time>
      </trkpt>
      <trkpt lat="43.32861" lon="2.30342">
        <ele>325.54</ele>
        <time>2014-06-05T14:59:39Z</time>
      </trkpt>
      <trkpt lat="43.32875" lon="2.30343">
        <ele>326.5</ele>
        <time>2014-06-05T14:59:53Z</time>
      </trkpt>
      <trkpt lat="43.32891" lon="2.30352">
        <ele>327.47</ele>
        <time>2014-06-05T15:00:10Z</time>
      </trkpt>
      <trkpt lat="43.32894" lon="2.30357">
        <ele>327.95</ele>
        <time>2014-06-05T15:00:22Z</time>
      </trkpt>
      <trkpt lat="43.32896" lon="2.30351">
        <ele>328.91</ele>
        <time>2014-06-05T15:00:39Z</time>
      </trkpt>
      <trkpt lat="43.32895" lon="2.30348">
        <ele>328.91</ele>
        <time>2014-06-05T15:01:05Z</time>
      </trkpt>
      <trkpt lat="43.32896" lon="2.30352">
        <ele>327.95</ele>
        <time>2014-06-05T15:01:20Z</time>
      </trkpt>
      <trkpt lat="43.32899" lon="2.30348">
        <ele>328.43</ele>
        <time>2014-06-05T15:01:26Z</time>
      </trkpt>
      <trkpt lat="43.3291" lon="2.30354">
        <ele>330.35</ele>
        <time>2014-06-05T15:01:39Z</time>
      </trkpt>
      <trkpt lat="43.32915" lon="2.30355">
        <ele>328.43</ele>
        <time>2014-06-05T15:02:05Z</time>
      </trkpt>
      <trkpt lat="43.32934" lon="2.30364">
        <ele>329.87</ele>
        <time>2014-06-05T15:02:20Z</time>
      </trkpt>
      <trkpt lat="43.32937" lon="2.30365">
        <ele>329.39</ele>
        <time>2014-06-05T15:02:23Z</time>
      </trkpt>
      <trkpt lat="43.32941" lon="2.30367">
        <ele>332.27</ele>
        <time>2014-06-05T15:02:26Z</time>
      </trkpt>
      <trkpt lat="43.32943" lon="2.30368">
        <ele>331.79</ele>
        <time>2014-06-05T15:02:27Z</time>
      </trkpt>
      <trkpt lat="43.32945" lon="2.30369">
        <ele>330.35</ele>
        <time>2014-06-05T15:02:29Z</time>
      </trkpt>
      <trkpt lat="43.32952" lon="2.30373">
        <ele>332.75</ele>
        <time>2014-06-05T15:02:35Z</time>
      </trkpt>
      <trkpt lat="43.3296" lon="2.30376">
        <ele>332.27</ele>
        <time>2014-06-05T15:02:41Z</time>
      </trkpt>
      <trkpt lat="43.32978" lon="2.30385">
        <ele>332.75</ele>
        <time>2014-06-05T15:02:56Z</time>
      </trkpt>
      <trkpt lat="43.3298" lon="2.30386">
        <ele>334.2</ele>
        <time>2014-06-05T15:02:58Z</time>
      </trkpt>
      <trkpt lat="43.32986" lon="2.3039">
        <ele>334.2</ele>
        <time>2014-06-05T15:03:04Z</time>
      </trkpt>
      <trkpt lat="43.33001" lon="2.30396">
        <ele>334.68</ele>
        <time>2014-06-05T15:03:19Z</time>
      </trkpt>
      <trkpt lat="43.33004" lon="2.30397">
        <ele>335.16</ele>
        <time>2014-06-05T15:03:32Z</time>
      </trkpt>
      <trkpt lat="43.33006" lon="2.30399">
        <ele>335.16</ele>
        <time>2014-06-05T15:03:35Z</time>
      </trkpt>
      <trkpt lat="43.33008" lon="2.30402">
        <ele>335.16</ele>
        <time>2014-06-05T15:03:38Z</time>
      </trkpt>
      <trkpt lat="43.33" lon="2.30398">
        <ele>335.64</ele>
        <time>2014-06-05T15:03:47Z</time>
      </trkpt>
      <trkpt lat="43.32996" lon="2.30418">
        <ele>333.71</ele>
        <time>2014-06-05T15:04:02Z</time>
      </trkpt>
      <trkpt lat="43.32991" lon="2.30436">
        <ele>334.68</ele>
        <time>2014-06-05T15:04:17Z</time>
      </trkpt>
      <trkpt lat="43.32983" lon="2.30456">
        <ele>333.71</ele>
        <time>2014-06-05T15:04:33Z</time>
      </trkpt>
      <trkpt lat="43.32978" lon="2.30469">
        <ele>333.23</ele>
        <time>2014-06-05T15:04:46Z</time>
      </trkpt>
      <trkpt lat="43.32973" lon="2.30484">
        <ele>333.23</ele>
        <time>2014-06-05T15:05:00Z</time>
      </trkpt>
      <trkpt lat="43.32968" lon="2.30498">
        <ele>333.23</ele>
        <time>2014-06-05T15:05:13Z</time>
      </trkpt>
      <trkpt lat="43.32962" lon="2.30515">
        <ele>333.23</ele>
        <time>2014-06-05T15:05:27Z</time>
      </trkpt>
      <trkpt lat="43.32957" lon="2.3053">
        <ele>331.31</ele>
        <time>2014-06-05T15:05:39Z</time>
      </trkpt>
      <trkpt lat="43.32956" lon="2.30534">
        <ele>332.27</ele>
        <time>2014-06-05T15:05:42Z</time>
      </trkpt>
      <trkpt lat="43.32956" lon="2.30541">
        <ele>331.79</ele>
        <time>2014-06-05T15:05:50Z</time>
      </trkpt>
      <trkpt lat="43.32958" lon="2.30542">
        <ele>333.23</ele>
        <time>2014-06-05T15:06:02Z</time>
      </trkpt>
      <trkpt lat="43.32959" lon="2.30545">
        <ele>333.71</ele>
        <time>2014-06-05T15:06:10Z</time>
      </trkpt>
      <trkpt lat="43.32974" lon="2.30551">
        <ele>332.75</ele>
        <time>2014-06-05T15:06:25Z</time>
      </trkpt>
      <trkpt lat="43.32987" lon="2.30557">
        <ele>333.23</ele>
        <time>2014-06-05T15:06:40Z</time>
      </trkpt>
      <trkpt lat="43.32999" lon="2.30559">
        <ele>332.27</ele>
        <time>2014-06-05T15:06:53Z</time>
      </trkpt>
      <trkpt lat="43.33003" lon="2.30557">
        <ele>332.75</ele>
        <time>2014-06-05T15:06:57Z</time>
      </trkpt>
      <trkpt lat="43.33006" lon="2.30556">
        <ele>332.27</ele>
        <time>2014-06-05T15:07:00Z</time>
      </trkpt>
      <trkpt lat="43.33018" lon="2.30545">
        <ele>332.75</ele>
        <time>2014-06-05T15:07:14Z</time>
      </trkpt>
      <trkpt lat="43.33028" lon="2.30523">
        <ele>332.75</ele>
        <time>2014-06-05T15:07:32Z</time>
      </trkpt>
      <trkpt lat="43.3303" lon="2.3052">
        <ele>332.75</ele>
        <time>2014-06-05T15:07:34Z</time>
      </trkpt>
      <trkpt lat="43.33036" lon="2.30503">
        <ele>333.23</ele>
        <time>2014-06-05T15:07:48Z</time>
      </trkpt>
      <trkpt lat="43.33046" lon="2.30481">
        <ele>333.71</ele>
        <time>2014-06-05T15:08:07Z</time>
      </trkpt>
      <trkpt lat="43.33054" lon="2.30461">
        <ele>333.71</ele>
        <time>2014-06-05T15:08:24Z</time>
      </trkpt>
      <trkpt lat="43.33061" lon="2.30441">
        <ele>334.68</ele>
        <time>2014-06-05T15:08:42Z</time>
      </trkpt>
      <trkpt lat="43.33066" lon="2.30429">
        <ele>335.16</ele>
        <time>2014-06-05T15:08:55Z</time>
      </trkpt>
      <trkpt lat="43.33076" lon="2.30422">
        <ele>335.16</ele>
        <time>2014-06-05T15:09:09Z</time>
      </trkpt>
      <trkpt lat="43.33077" lon="2.30423">
        <ele>334.2</ele>
        <time>2014-06-05T15:09:11Z</time>
      </trkpt>
      <trkpt lat="43.33087" lon="2.30427">
        <ele>336.12</ele>
        <time>2014-06-05T15:09:22Z</time>
      </trkpt>
      <trkpt lat="43.33097" lon="2.3043">
        <ele>335.16</ele>
        <time>2014-06-05T15:09:37Z</time>
      </trkpt>
      <trkpt lat="43.33109" lon="2.30436">
        <ele>335.16</ele>
        <time>2014-06-05T15:09:52Z</time>
      </trkpt>
      <trkpt lat="43.33116" lon="2.30438">
        <ele>334.68</ele>
        <time>2014-06-05T15:10:05Z</time>
      </trkpt>
      <trkpt lat="43.33125" lon="2.30438">
        <ele>335.64</ele>
        <time>2014-06-05T15:10:19Z</time>
      </trkpt>
      <trkpt lat="43.33129" lon="2.3043">
        <ele>335.16</ele>
        <time>2014-06-05T15:10:33Z</time>
      </trkpt>
      <trkpt lat="43.33128" lon="2.3043">
        <ele>335.16</ele>
        <time>2014-06-05T15:10:48Z</time>
      </trkpt>
      <trkpt lat="43.3313" lon="2.30426">
        <ele>335.64</ele>
        <time>2014-06-05T15:11:03Z</time>
      </trkpt>
      <trkpt lat="43.3313" lon="2.30426">
        <ele>334.2</ele>
        <time>2014-06-05T15:11:15Z</time>
      </trkpt>
      <trkpt lat="43.33129" lon="2.3043">
        <ele>334.68</ele>
        <time>2014-06-05T15:11:33Z</time>
      </trkpt>
      <trkpt lat="43.33128" lon="2.30433">
        <ele>334.68</ele>
        <time>2014-06-05T15:12:01Z</time>
      </trkpt>
      <trkpt lat="43.33131" lon="2.30431">
        <ele>334.68</ele>
        <time>2014-06-05T15:12:31Z</time>
      </trkpt>
      <trkpt lat="43.33135" lon="2.30431">
        <ele>334.2</ele>
        <time>2014-06-05T15:13:03Z</time>
      </trkpt>
      <trkpt lat="43.33139" lon="2.30432">
        <ele>334.68</ele>
        <time>2014-06-05T15:13:27Z</time>
      </trkpt>
      <trkpt lat="43.33135" lon="2.30433">
        <ele>335.16</ele>
        <time>2014-06-05T15:13:56Z</time>
      </trkpt>
      <trkpt lat="43.33136" lon="2.30435">
        <ele>335.16</ele>
        <time>2014-06-05T15:14:22Z</time>
      </trkpt>
      <trkpt lat="43.33135" lon="2.3043">
        <ele>335.16</ele>
        <time>2014-06-05T15:14:43Z</time>
      </trkpt>
      <trkpt lat="43.33133" lon="2.3043">
        <ele>335.16</ele>
        <time>2014-06-05T15:15:08Z</time>
      </trkpt>
      <trkpt lat="43.33132" lon="2.30428">
        <ele>335.16</ele>
        <time>2014-06-05T15:15:30Z</time>
      </trkpt>
      <trkpt lat="43.33131" lon="2.30431">
        <ele>336.12</ele>
        <time>2014-06-05T15:15:58Z</time>
      </trkpt>
      <trkpt lat="43.33132" lon="2.3043">
        <ele>336.12</ele>
        <time>2014-06-05T15:16:24Z</time>
      </trkpt>
      <trkpt lat="43.33133" lon="2.3043">
        <ele>336.12</ele>
        <time>2014-06-05T15:16:45Z</time>
      </trkpt>
      <trkpt lat="43.33132" lon="2.30428">
        <ele>336.12</ele>
        <time>2014-06-05T15:17:11Z</time>
      </trkpt>
      <trkpt lat="43.33131" lon="2.3043">
        <ele>336.6</ele>
        <time>2014-06-05T15:17:34Z</time>
      </trkpt>
      <trkpt lat="43.3313" lon="2.30429">
        <ele>336.12</ele>
        <time>2014-06-05T15:17:57Z</time>
      </trkpt>
      <trkpt lat="43.33132" lon="2.30431">
        <ele>336.12</ele>
        <time>2014-06-05T15:18:17Z</time>
      </trkpt>
      <trkpt lat="43.33133" lon="2.30438">
        <ele>337.56</ele>
        <time>2014-06-05T15:18:27Z</time>
      </trkpt>
      <trkpt lat="43.33133" lon="2.30439">
        <ele>338.04</ele>
        <time>2014-06-05T15:18:28Z</time>
      </trkpt>
      <trkpt lat="43.33137" lon="2.30447">
        <ele>342.37</ele>
        <time>2014-06-05T15:18:37Z</time>
      </trkpt>
      <trkpt lat="43.33141" lon="2.30451">
        <ele>338.52</ele>
        <time>2014-06-05T15:18:43Z</time>
      </trkpt>
      <trkpt lat="43.33142" lon="2.30452">
        <ele>338.04</ele>
        <time>2014-06-05T15:18:45Z</time>
      </trkpt>
      <trkpt lat="43.33143" lon="2.30453">
        <ele>338.04</ele>
        <time>2014-06-05T15:18:46Z</time>
      </trkpt>
      <trkpt lat="43.33151" lon="2.30457">
        <ele>338.04</ele>
        <time>2014-06-05T15:18:57Z</time>
      </trkpt>
      <trkpt lat="43.33159" lon="2.30467">
        <ele>339.96</ele>
        <time>2014-06-05T15:19:06Z</time>
      </trkpt>
      <trkpt lat="43.33166" lon="2.30472">
        <ele>340.92</ele>
        <time>2014-06-05T15:19:14Z</time>
      </trkpt>
      <trkpt lat="43.33171" lon="2.30477">
        <ele>340.92</ele>
        <time>2014-06-05T15:19:21Z</time>
      </trkpt>
      <trkpt lat="43.33178" lon="2.30487">
        <ele>340.44</ele>
        <time>2014-06-05T15:19:34Z</time>
      </trkpt>
      <trkpt lat="43.33182" lon="2.30491">
        <ele>340.92</ele>
        <time>2014-06-05T15:19:46Z</time>
      </trkpt>
      <trkpt lat="43.33184" lon="2.30493">
        <ele>341.41</ele>
        <time>2014-06-05T15:19:48Z</time>
      </trkpt>
      <trkpt lat="43.33192" lon="2.30503">
        <ele>341.41</ele>
        <time>2014-06-05T15:20:00Z</time>
      </trkpt>
      <trkpt lat="43.33196" lon="2.30508">
        <ele>341.89</ele>
        <time>2014-06-05T15:20:07Z</time>
      </trkpt>
      <trkpt lat="43.33198" lon="2.30511">
        <ele>342.37</ele>
        <time>2014-06-05T15:20:10Z</time>
      </trkpt>
      <trkpt lat="43.33202" lon="2.30516">
        <ele>342.37</ele>
        <time>2014-06-05T15:20:16Z</time>
      </trkpt>
      <trkpt lat="43.33204" lon="2.30518">
        <ele>342.37</ele>
        <time>2014-06-05T15:20:19Z</time>
      </trkpt>
      <trkpt lat="43.33206" lon="2.3052">
        <ele>342.37</ele>
        <time>2014-06-05T15:20:22Z</time>
      </trkpt>
      <trkpt lat="43.33212" lon="2.3053">
        <ele>343.33</ele>
        <time>2014-06-05T15:20:33Z</time>
      </trkpt>
      <trkpt lat="43.33221" lon="2.30538">
        <ele>343.33</ele>
        <time>2014-06-05T15:20:46Z</time>
      </trkpt>
      <trkpt lat="43.33229" lon="2.30546">
        <ele>344.29</ele>
        <time>2014-06-05T15:20:59Z</time>
      </trkpt>
      <trkpt lat="43.33233" lon="2.30552">
        <ele>344.77</ele>
        <time>2014-06-05T15:21:17Z</time>
      </trkpt>
      <trkpt lat="43.33237" lon="2.30555">
        <ele>345.73</ele>
        <time>2014-06-05T15:21:39Z</time>
      </trkpt>
      <trkpt lat="43.33249" lon="2.30563">
        <ele>345.73</ele>
        <time>2014-06-05T15:21:54Z</time>
      </trkpt>
      <trkpt lat="43.33257" lon="2.3057">
        <ele>346.69</ele>
        <time>2014-06-05T15:22:06Z</time>
      </trkpt>
      <trkpt lat="43.33266" lon="2.30576">
        <ele>348.13</ele>
        <time>2014-06-05T15:22:19Z</time>
      </trkpt>
      <trkpt lat="43.33273" lon="2.30581">
        <ele>348.13</ele>
        <time>2014-06-05T15:22:30Z</time>
      </trkpt>
      <trkpt lat="43.33285" lon="2.30589">
        <ele>349.1</ele>
        <time>2014-06-05T15:22:45Z</time>
      </trkpt>
      <trkpt lat="43.33294" lon="2.30598">
        <ele>350.54</ele>
        <time>2014-06-05T15:22:59Z</time>
      </trkpt>
      <trkpt lat="43.33304" lon="2.30604">
        <ele>350.54</ele>
        <time>2014-06-05T15:23:12Z</time>
      </trkpt>
      <trkpt lat="43.33309" lon="2.30608">
        <ele>350.06</ele>
        <time>2014-06-05T15:23:29Z</time>
      </trkpt>
      <trkpt lat="43.33316" lon="2.30617">
        <ele>350.54</ele>
        <time>2014-06-05T15:23:40Z</time>
      </trkpt>
      <trkpt lat="43.33319" lon="2.30619">
        <ele>350.54</ele>
        <time>2014-06-05T15:23:44Z</time>
      </trkpt>
      <trkpt lat="43.33327" lon="2.30627">
        <ele>350.54</ele>
        <time>2014-06-05T15:23:59Z</time>
      </trkpt>
      <trkpt lat="43.33339" lon="2.30632">
        <ele>349.58</ele>
        <time>2014-06-05T15:24:16Z</time>
      </trkpt>
      <trkpt lat="43.33345" lon="2.30632">
        <ele>348.62</ele>
        <time>2014-06-05T15:24:30Z</time>
      </trkpt>
      <trkpt lat="43.3335" lon="2.30632">
        <ele>349.1</ele>
        <time>2014-06-05T15:24:51Z</time>
      </trkpt>
      <trkpt lat="43.33358" lon="2.30626">
        <ele>349.58</ele>
        <time>2014-06-05T15:25:05Z</time>
      </trkpt>
      <trkpt lat="43.33368" lon="2.30628">
        <ele>349.58</ele>
        <time>2014-06-05T15:25:23Z</time>
      </trkpt>
      <trkpt lat="43.3337" lon="2.30633">
        <ele>349.58</ele>
        <time>2014-06-05T15:25:41Z</time>
      </trkpt>
      <trkpt lat="43.33368" lon="2.30633">
        <ele>349.1</ele>
        <time>2014-06-05T15:25:58Z</time>
      </trkpt>
      <trkpt lat="43.33368" lon="2.30635">
        <ele>349.58</ele>
        <time>2014-06-05T15:26:17Z</time>
      </trkpt>
      <trkpt lat="43.33371" lon="2.30632">
        <ele>349.1</ele>
        <time>2014-06-05T15:26:39Z</time>
      </trkpt>
      <trkpt lat="43.33378" lon="2.3064">
        <ele>349.1</ele>
        <time>2014-06-05T15:26:53Z</time>
      </trkpt>
      <trkpt lat="43.33377" lon="2.30643">
        <ele>350.06</ele>
        <time>2014-06-05T15:27:07Z</time>
      </trkpt>
      <trkpt lat="43.33378" lon="2.30642">
        <ele>350.06</ele>
        <time>2014-06-05T15:27:43Z</time>
      </trkpt>
      <trkpt lat="43.33376" lon="2.30642">
        <ele>348.62</ele>
        <time>2014-06-05T15:28:11Z</time>
      </trkpt>
      <trkpt lat="43.33377" lon="2.3064">
        <ele>349.58</ele>
        <time>2014-06-05T15:28:40Z</time>
      </trkpt>
      <trkpt lat="43.33381" lon="2.30638">
        <ele>350.06</ele>
        <time>2014-06-05T15:29:08Z</time>
      </trkpt>
      <trkpt lat="43.33379" lon="2.3064">
        <ele>349.58</ele>
        <time>2014-06-05T15:29:34Z</time>
      </trkpt>
      <trkpt lat="43.33378" lon="2.30641">
        <ele>349.58</ele>
        <time>2014-06-05T15:30:00Z</time>
      </trkpt>
      <trkpt lat="43.33378" lon="2.30642">
        <ele>349.58</ele>
        <time>2014-06-05T15:30:27Z</time>
      </trkpt>
      <trkpt lat="43.33383" lon="2.30644">
        <ele>350.06</ele>
        <time>2014-06-05T15:31:02Z</time>
      </trkpt>
      <trkpt lat="43.33378" lon="2.30641">
        <ele>349.58</ele>
        <time>2014-06-05T15:31:34Z</time>
      </trkpt>
      <trkpt lat="43.33377" lon="2.30642">
        <ele>349.58</ele>
        <time>2014-06-05T15:32:02Z</time>
      </trkpt>
      <trkpt lat="43.33383" lon="2.30646">
        <ele>349.58</ele>
        <time>2014-06-05T15:32:17Z</time>
      </trkpt>
      <trkpt lat="43.3339" lon="2.30656">
        <ele>350.54</ele>
        <time>2014-06-05T15:32:31Z</time>
      </trkpt>
      <trkpt lat="43.33394" lon="2.30674">
        <ele>352.46</ele>
        <time>2014-06-05T15:32:49Z</time>
      </trkpt>
      <trkpt lat="43.33399" lon="2.30691">
        <ele>353.42</ele>
        <time>2014-06-05T15:33:04Z</time>
      </trkpt>
      <trkpt lat="43.33407" lon="2.3071">
        <ele>354.86</ele>
        <time>2014-06-05T15:33:20Z</time>
      </trkpt>
      <trkpt lat="43.33411" lon="2.30725">
        <ele>355.34</ele>
        <time>2014-06-05T15:33:33Z</time>
      </trkpt>
      <trkpt lat="43.33415" lon="2.30736">
        <ele>354.86</ele>
        <time>2014-06-05T15:33:44Z</time>
      </trkpt>
      <trkpt lat="43.33425" lon="2.30752">
        <ele>356.31</ele>
        <time>2014-06-05T15:33:59Z</time>
      </trkpt>
      <trkpt lat="43.33428" lon="2.30755">
        <ele>356.79</ele>
        <time>2014-06-05T15:34:02Z</time>
      </trkpt>
      <trkpt lat="43.33433" lon="2.30771">
        <ele>357.27</ele>
        <time>2014-06-05T15:34:16Z</time>
      </trkpt>
      <trkpt lat="43.33436" lon="2.30779">
        <ele>358.23</ele>
        <time>2014-06-05T15:34:23Z</time>
      </trkpt>
      <trkpt lat="43.33445" lon="2.30799">
        <ele>358.71</ele>
        <time>2014-06-05T15:34:41Z</time>
      </trkpt>
      <trkpt lat="43.33452" lon="2.30816">
        <ele>358.71</ele>
        <time>2014-06-05T15:34:55Z</time>
      </trkpt>
      <trkpt lat="43.33453" lon="2.30833">
        <ele>359.67</ele>
        <time>2014-06-05T15:35:08Z</time>
      </trkpt>
      <trkpt lat="43.33456" lon="2.30848">
        <ele>361.11</ele>
        <time>2014-06-05T15:35:22Z</time>
      </trkpt>
      <trkpt lat="43.33459" lon="2.3086">
        <ele>361.11</ele>
        <time>2014-06-05T15:35:30Z</time>
      </trkpt>
      <trkpt lat="43.33464" lon="2.30884">
        <ele>364</ele>
        <time>2014-06-05T15:35:48Z</time>
      </trkpt>
      <trkpt lat="43.33466" lon="2.30888">
        <ele>364.48</ele>
        <time>2014-06-05T15:35:52Z</time>
      </trkpt>
      <trkpt lat="43.33475" lon="2.30887">
        <ele>364.96</ele>
        <time>2014-06-05T15:36:05Z</time>
      </trkpt>
      <trkpt lat="43.33488" lon="2.30879">
        <ele>366.4</ele>
        <time>2014-06-05T15:36:21Z</time>
      </trkpt>
      <trkpt lat="43.3349" lon="2.30879">
        <ele>366.4</ele>
        <time>2014-06-05T15:36:23Z</time>
      </trkpt>
      <trkpt lat="43.33508" lon="2.30876">
        <ele>369.28</ele>
        <time>2014-06-05T15:36:38Z</time>
      </trkpt>
      <trkpt lat="43.33512" lon="2.30876">
        <ele>369.76</ele>
        <time>2014-06-05T15:36:41Z</time>
      </trkpt>
      <trkpt lat="43.33523" lon="2.30884">
        <ele>369.76</ele>
        <time>2014-06-05T15:36:51Z</time>
      </trkpt>
      <trkpt lat="43.33525" lon="2.30909">
        <ele>370.24</ele>
        <time>2014-06-05T15:37:07Z</time>
      </trkpt>
      <trkpt lat="43.33523" lon="2.30928">
        <ele>370.24</ele>
        <time>2014-06-05T15:37:21Z</time>
      </trkpt>
      <trkpt lat="43.33524" lon="2.30946">
        <ele>369.76</ele>
        <time>2014-06-05T15:37:38Z</time>
      </trkpt>
      <trkpt lat="43.33525" lon="2.30946">
        <ele>370.24</ele>
        <time>2014-06-05T15:37:54Z</time>
      </trkpt>
      <trkpt lat="43.33527" lon="2.30947">
        <ele>370.24</ele>
        <time>2014-06-05T15:38:09Z</time>
      </trkpt>
      <trkpt lat="43.33526" lon="2.30947">
        <ele>369.28</ele>
        <time>2014-06-05T15:38:29Z</time>
      </trkpt>
      <trkpt lat="43.33524" lon="2.30947">
        <ele>369.76</ele>
        <time>2014-06-05T15:38:44Z</time>
      </trkpt>
      <trkpt lat="43.33524" lon="2.30924">
        <ele>369.28</ele>
        <time>2014-06-05T15:38:59Z</time>
      </trkpt>
      <trkpt lat="43.33524" lon="2.30891">
        <ele>369.76</ele>
        <time>2014-06-05T15:39:17Z</time>
      </trkpt>
      <trkpt lat="43.33522" lon="2.30884">
        <ele>369.76</ele>
        <time>2014-06-05T15:39:21Z</time>
      </trkpt>
      <trkpt lat="43.33527" lon="2.30861">
        <ele>369.28</ele>
        <time>2014-06-05T15:39:37Z</time>
      </trkpt>
      <trkpt lat="43.33529" lon="2.3085">
        <ele>369.28</ele>
        <time>2014-06-05T15:39:46Z</time>
      </trkpt>
      <trkpt lat="43.33536" lon="2.30829">
        <ele>371.21</ele>
        <time>2014-06-05T15:40:03Z</time>
      </trkpt>
      <trkpt lat="43.3354" lon="2.30819">
        <ele>370.24</ele>
        <time>2014-06-05T15:40:11Z</time>
      </trkpt>
      <trkpt lat="43.33551" lon="2.30802">
        <ele>370.24</ele>
        <time>2014-06-05T15:40:27Z</time>
      </trkpt>
      <trkpt lat="43.33557" lon="2.30782">
        <ele>371.21</ele>
        <time>2014-06-05T15:40:43Z</time>
      </trkpt>
      <trkpt lat="43.33559" lon="2.30777">
        <ele>371.21</ele>
        <time>2014-06-05T15:40:47Z</time>
      </trkpt>
      <trkpt lat="43.33562" lon="2.30755">
        <ele>370.73</ele>
        <time>2014-06-05T15:41:03Z</time>
      </trkpt>
      <trkpt lat="43.33566" lon="2.30734">
        <ele>370.73</ele>
        <time>2014-06-05T15:41:20Z</time>
      </trkpt>
      <trkpt lat="43.33571" lon="2.30714">
        <ele>371.21</ele>
        <time>2014-06-05T15:41:36Z</time>
      </trkpt>
      <trkpt lat="43.33573" lon="2.30709">
        <ele>370.73</ele>
        <time>2014-06-05T15:41:39Z</time>
      </trkpt>
      <trkpt lat="43.33579" lon="2.30689">
        <ele>371.21</ele>
        <time>2014-06-05T15:41:53Z</time>
      </trkpt>
      <trkpt lat="43.3358" lon="2.30675">
        <ele>371.21</ele>
        <time>2014-06-05T15:42:03Z</time>
      </trkpt>
      <trkpt lat="43.3358" lon="2.3067">
        <ele>371.69</ele>
        <time>2014-06-05T15:42:07Z</time>
      </trkpt>
      <trkpt lat="43.33585" lon="2.30649">
        <ele>372.65</ele>
        <time>2014-06-05T15:42:22Z</time>
      </trkpt>
      <trkpt lat="43.33587" lon="2.30645">
        <ele>372.17</ele>
        <time>2014-06-05T15:42:26Z</time>
      </trkpt>
      <trkpt lat="43.33593" lon="2.30625">
        <ele>372.65</ele>
        <time>2014-06-05T15:42:43Z</time>
      </trkpt>
      <trkpt lat="43.33594" lon="2.30611">
        <ele>372.65</ele>
        <time>2014-06-05T15:42:56Z</time>
      </trkpt>
      <trkpt lat="43.33597" lon="2.30588">
        <ele>371.69</ele>
        <time>2014-06-05T15:43:13Z</time>
      </trkpt>
      <trkpt lat="43.33598" lon="2.30583">
        <ele>371.69</ele>
        <time>2014-06-05T15:43:27Z</time>
      </trkpt>
      <trkpt lat="43.33599" lon="2.30568">
        <ele>372.17</ele>
        <time>2014-06-05T15:43:40Z</time>
      </trkpt>
      <trkpt lat="43.33603" lon="2.30553">
        <ele>372.17</ele>
        <time>2014-06-05T15:43:52Z</time>
      </trkpt>
      <trkpt lat="43.33605" lon="2.3054">
        <ele>371.69</ele>
        <time>2014-06-05T15:44:06Z</time>
      </trkpt>
      <trkpt lat="43.33603" lon="2.30535">
        <ele>372.17</ele>
        <time>2014-06-05T15:44:26Z</time>
      </trkpt>
      <trkpt lat="43.33605" lon="2.30534">
        <ele>371.21</ele>
        <time>2014-06-05T15:44:45Z</time>
      </trkpt>
      <trkpt lat="43.33604" lon="2.30533">
        <ele>370.73</ele>
        <time>2014-06-05T15:45:17Z</time>
      </trkpt>
      <trkpt lat="43.33603" lon="2.30536">
        <ele>371.21</ele>
        <time>2014-06-05T15:45:39Z</time>
      </trkpt>
      <trkpt lat="43.33603" lon="2.30524">
        <ele>371.21</ele>
        <time>2014-06-05T15:45:56Z</time>
      </trkpt>
      <trkpt lat="43.33604" lon="2.30517">
        <ele>371.69</ele>
        <time>2014-06-05T15:46:02Z</time>
      </trkpt>
      <trkpt lat="43.33605" lon="2.30512">
        <ele>371.21</ele>
        <time>2014-06-05T15:46:05Z</time>
      </trkpt>
      <trkpt lat="43.33607" lon="2.30493">
        <ele>371.21</ele>
        <time>2014-06-05T15:46:15Z</time>
      </trkpt>
      <trkpt lat="43.33618" lon="2.30465">
        <ele>372.17</ele>
        <time>2014-06-05T15:46:35Z</time>
      </trkpt>
      <trkpt lat="43.33624" lon="2.30446">
        <ele>369.76</ele>
        <time>2014-06-05T15:46:52Z</time>
      </trkpt>
      <trkpt lat="43.33625" lon="2.30426">
        <ele>373.13</ele>
        <time>2014-06-05T15:47:09Z</time>
      </trkpt>
      <trkpt lat="43.33627" lon="2.3041">
        <ele>373.61</ele>
        <time>2014-06-05T15:47:29Z</time>
      </trkpt>
      <trkpt lat="43.33629" lon="2.30412">
        <ele>373.61</ele>
        <time>2014-06-05T15:47:42Z</time>
      </trkpt>
      <trkpt lat="43.33628" lon="2.30398">
        <ele>373.61</ele>
        <time>2014-06-05T15:47:56Z</time>
      </trkpt>
      <trkpt lat="43.33626" lon="2.30394">
        <ele>375.05</ele>
        <time>2014-06-05T15:48:14Z</time>
      </trkpt>
      <trkpt lat="43.33625" lon="2.30388">
        <ele>374.09</ele>
        <time>2014-06-05T15:48:30Z</time>
      </trkpt>
      <trkpt lat="43.33626" lon="2.30382">
        <ele>374.57</ele>
        <time>2014-06-05T15:48:51Z</time>
      </trkpt>
      <trkpt lat="43.33624" lon="2.30369">
        <ele>375.05</ele>
        <time>2014-06-05T15:49:08Z</time>
      </trkpt>
      <trkpt lat="43.33622" lon="2.30359">
        <ele>375.05</ele>
        <time>2014-06-05T15:49:22Z</time>
      </trkpt>
      <trkpt lat="43.33619" lon="2.30346">
        <ele>375.05</ele>
        <time>2014-06-05T15:49:39Z</time>
      </trkpt>
      <trkpt lat="43.33616" lon="2.30335">
        <ele>375.53</ele>
        <time>2014-06-05T15:49:54Z</time>
      </trkpt>
      <trkpt lat="43.33616" lon="2.3032">
        <ele>376.49</ele>
        <time>2014-06-05T15:50:11Z</time>
      </trkpt>
      <trkpt lat="43.33617" lon="2.30318">
        <ele>376.97</ele>
        <time>2014-06-05T15:50:28Z</time>
      </trkpt>
      <trkpt lat="43.33617" lon="2.30318">
        <ele>375.53</ele>
        <time>2014-06-05T15:50:41Z</time>
      </trkpt>
      <trkpt lat="43.33614" lon="2.3032">
        <ele>374.09</ele>
        <time>2014-06-05T15:51:08Z</time>
      </trkpt>
      <trkpt lat="43.33614" lon="2.30316">
        <ele>376.01</ele>
        <time>2014-06-05T15:51:19Z</time>
      </trkpt>
      <trkpt lat="43.33614" lon="2.30312">
        <ele>376.01</ele>
        <time>2014-06-05T15:51:24Z</time>
      </trkpt>
      <trkpt lat="43.33615" lon="2.30304">
        <ele>376.01</ele>
        <time>2014-06-05T15:51:32Z</time>
      </trkpt>
      <trkpt lat="43.33614" lon="2.30294">
        <ele>377.45</ele>
        <time>2014-06-05T15:51:43Z</time>
      </trkpt>
      <trkpt lat="43.33614" lon="2.30291">
        <ele>376.97</ele>
        <time>2014-06-05T15:51:46Z</time>
      </trkpt>
      <trkpt lat="43.33615" lon="2.30287">
        <ele>376.97</ele>
        <time>2014-06-05T15:51:49Z</time>
      </trkpt>
      <trkpt lat="43.33615" lon="2.30279">
        <ele>377.45</ele>
        <time>2014-06-05T15:51:56Z</time>
      </trkpt>
      <trkpt lat="43.33615" lon="2.30276">
        <ele>376.97</ele>
        <time>2014-06-05T15:51:59Z</time>
      </trkpt>
      <trkpt lat="43.33615" lon="2.30272">
        <ele>376.97</ele>
        <time>2014-06-05T15:52:03Z</time>
      </trkpt>
      <trkpt lat="43.33615" lon="2.30263">
        <ele>376.01</ele>
        <time>2014-06-05T15:52:15Z</time>
      </trkpt>
      <trkpt lat="43.33614" lon="2.30264">
        <ele>377.45</ele>
        <time>2014-06-05T15:52:37Z</time>
      </trkpt>
      <trkpt lat="43.33614" lon="2.30264">
        <ele>376.97</ele>
        <time>2014-06-05T15:52:42Z</time>
      </trkpt>
      <trkpt lat="43.33616" lon="2.30264">
        <ele>376.97</ele>
        <time>2014-06-05T15:52:45Z</time>
      </trkpt>
      <trkpt lat="43.33617" lon="2.30263">
        <ele>377.94</ele>
        <time>2014-06-05T15:52:59Z</time>
      </trkpt>
      <trkpt lat="43.33617" lon="2.30263">
        <ele>377.45</ele>
        <time>2014-06-05T15:53:00Z</time>
      </trkpt>
      <trkpt lat="43.33615" lon="2.30259">
        <ele>377.45</ele>
        <time>2014-06-05T15:53:14Z</time>
      </trkpt>
      <trkpt lat="43.33614" lon="2.3026">
        <ele>376.49</ele>
        <time>2014-06-05T15:53:17Z</time>
      </trkpt>
      <trkpt lat="43.33616" lon="2.30237">
        <ele>377.94</ele>
        <time>2014-06-05T15:53:32Z</time>
      </trkpt>
      <trkpt lat="43.33619" lon="2.30221">
        <ele>378.42</ele>
        <time>2014-06-05T15:53:48Z</time>
      </trkpt>
      <trkpt lat="43.33622" lon="2.30202">
        <ele>378.42</ele>
        <time>2014-06-05T15:54:03Z</time>
      </trkpt>
      <trkpt lat="43.33627" lon="2.30188">
        <ele>378.9</ele>
        <time>2014-06-05T15:54:17Z</time>
      </trkpt>
      <trkpt lat="43.33629" lon="2.30183">
        <ele>378.42</ele>
        <time>2014-06-05T15:54:23Z</time>
      </trkpt>
      <trkpt lat="43.33631" lon="2.30176">
        <ele>378.42</ele>
        <time>2014-06-05T15:54:29Z</time>
      </trkpt>
      <trkpt lat="43.33634" lon="2.30156">
        <ele>379.86</ele>
        <time>2014-06-05T15:54:45Z</time>
      </trkpt>
      <trkpt lat="43.33635" lon="2.30134">
        <ele>378.9</ele>
        <time>2014-06-05T15:55:01Z</time>
      </trkpt>
      <trkpt lat="43.3364" lon="2.30114">
        <ele>378.9</ele>
        <time>2014-06-05T15:55:18Z</time>
      </trkpt>
      <trkpt lat="43.33643" lon="2.30101">
        <ele>378.42</ele>
        <time>2014-06-05T15:55:34Z</time>
      </trkpt>
      <trkpt lat="43.33645" lon="2.30084">
        <ele>379.38</ele>
        <time>2014-06-05T15:55:50Z</time>
      </trkpt>
      <trkpt lat="43.33647" lon="2.30063">
        <ele>379.86</ele>
        <time>2014-06-05T15:56:07Z</time>
      </trkpt>
      <trkpt lat="43.33653" lon="2.30042">
        <ele>380.34</ele>
        <time>2014-06-05T15:56:26Z</time>
      </trkpt>
      <trkpt lat="43.33656" lon="2.30034">
        <ele>379.86</ele>
        <time>2014-06-05T15:56:41Z</time>
      </trkpt>
      <trkpt lat="43.33659" lon="2.30011">
        <ele>379.38</ele>
        <time>2014-06-05T15:56:57Z</time>
      </trkpt>
      <trkpt lat="43.33662" lon="2.2999">
        <ele>379.86</ele>
        <time>2014-06-05T15:57:15Z</time>
      </trkpt>
      <trkpt lat="43.33668" lon="2.29988">
        <ele>380.34</ele>
        <time>2014-06-05T15:57:32Z</time>
      </trkpt>
      <trkpt lat="43.33669" lon="2.29987">
        <ele>380.34</ele>
        <time>2014-06-05T15:57:33Z</time>
      </trkpt>
      <trkpt lat="43.33678" lon="2.29989">
        <ele>379.86</ele>
        <time>2014-06-05T15:57:56Z</time>
      </trkpt>
      <trkpt lat="43.33682" lon="2.29988">
        <ele>379.86</ele>
        <time>2014-06-05T15:58:17Z</time>
      </trkpt>
      <trkpt lat="43.33663" lon="2.29988">
        <ele>379.86</ele>
        <time>2014-06-05T15:58:29Z</time>
      </trkpt>
      <trkpt lat="43.33663" lon="2.29967">
        <ele>379.38</ele>
        <time>2014-06-05T15:58:44Z</time>
      </trkpt>
      <trkpt lat="43.33668" lon="2.29944">
        <ele>379.86</ele>
        <time>2014-06-05T15:58:59Z</time>
      </trkpt>
      <trkpt lat="43.33675" lon="2.29915">
        <ele>379.38</ele>
        <time>2014-06-05T15:59:18Z</time>
      </trkpt>
      <trkpt lat="43.33682" lon="2.29895">
        <ele>379.86</ele>
        <time>2014-06-05T15:59:35Z</time>
      </trkpt>
      <trkpt lat="43.33687" lon="2.29881">
        <ele>380.34</ele>
        <time>2014-06-05T15:59:45Z</time>
      </trkpt>
      <trkpt lat="43.33692" lon="2.29859">
        <ele>380.82</ele>
        <time>2014-06-05T16:00:01Z</time>
      </trkpt>
      <trkpt lat="43.33697" lon="2.29836">
        <ele>380.82</ele>
        <time>2014-06-05T16:00:17Z</time>
      </trkpt>
      <trkpt lat="43.33703" lon="2.29809">
        <ele>382.74</ele>
        <time>2014-06-05T16:00:35Z</time>
      </trkpt>
      <trkpt lat="43.33709" lon="2.29784">
        <ele>381.78</ele>
        <time>2014-06-05T16:00:52Z</time>
      </trkpt>
      <trkpt lat="43.33709" lon="2.29783">
        <ele>381.78</ele>
        <time>2014-06-05T16:00:53Z</time>
      </trkpt>
      <trkpt lat="43.33711" lon="2.29769">
        <ele>381.78</ele>
        <time>2014-06-05T16:01:05Z</time>
      </trkpt>
      <trkpt lat="43.3371" lon="2.29763">
        <ele>380.82</ele>
        <time>2014-06-05T16:01:18Z</time>
      </trkpt>
      <trkpt lat="43.33709" lon="2.29762">
        <ele>380.34</ele>
        <time>2014-06-05T16:01:33Z</time>
      </trkpt>
      <trkpt lat="43.33709" lon="2.29761">
        <ele>380.82</ele>
        <time>2014-06-05T16:01:44Z</time>
      </trkpt>
      <trkpt lat="43.33707" lon="2.2976">
        <ele>380.82</ele>
        <time>2014-06-05T16:02:02Z</time>
      </trkpt>
      <trkpt lat="43.33707" lon="2.29761">
        <ele>381.3</ele>
        <time>2014-06-05T16:02:12Z</time>
      </trkpt>
      <trkpt lat="43.3371" lon="2.29756">
        <ele>379.86</ele>
        <time>2014-06-05T16:02:40Z</time>
      </trkpt>
      <trkpt lat="43.33709" lon="2.29761">
        <ele>380.82</ele>
        <time>2014-06-05T16:03:02Z</time>
      </trkpt>
      <trkpt lat="43.33709" lon="2.2976">
        <ele>381.78</ele>
        <time>2014-06-05T16:03:19Z</time>
      </trkpt>
      <trkpt lat="43.33715" lon="2.2974">
        <ele>381.3</ele>
        <time>2014-06-05T16:03:33Z</time>
      </trkpt>
      <trkpt lat="43.33716" lon="2.29732">
        <ele>381.78</ele>
        <time>2014-06-05T16:03:39Z</time>
      </trkpt>
      <trkpt lat="43.33719" lon="2.29729">
        <ele>382.26</ele>
        <time>2014-06-05T16:03:42Z</time>
      </trkpt>
      <trkpt lat="43.3373" lon="2.29704">
        <ele>381.78</ele>
        <time>2014-06-05T16:04:01Z</time>
      </trkpt>
      <trkpt lat="43.33733" lon="2.297">
        <ele>382.26</ele>
        <time>2014-06-05T16:04:05Z</time>
      </trkpt>
      <trkpt lat="43.33748" lon="2.29691">
        <ele>384.18</ele>
        <time>2014-06-05T16:04:22Z</time>
      </trkpt>
      <trkpt lat="43.33752" lon="2.2969">
        <ele>384.66</ele>
        <time>2014-06-05T16:04:26Z</time>
      </trkpt>
      <trkpt lat="43.33761" lon="2.29692">
        <ele>385.63</ele>
        <time>2014-06-05T16:04:40Z</time>
      </trkpt>
      <trkpt lat="43.33769" lon="2.29694">
        <ele>386.59</ele>
        <time>2014-06-05T16:04:48Z</time>
      </trkpt>
      <trkpt lat="43.3378" lon="2.29695">
        <ele>387.55</ele>
        <time>2014-06-05T16:05:01Z</time>
      </trkpt>
      <trkpt lat="43.33782" lon="2.29695">
        <ele>388.99</ele>
        <time>2014-06-05T16:05:03Z</time>
      </trkpt>
      <trkpt lat="43.33792" lon="2.29697">
        <ele>390.43</ele>
        <time>2014-06-05T16:05:15Z</time>
      </trkpt>
      <trkpt lat="43.33798" lon="2.29696">
        <ele>389.47</ele>
        <time>2014-06-05T16:05:28Z</time>
      </trkpt>
      <trkpt lat="43.33807" lon="2.29697">
        <ele>392.84</ele>
        <time>2014-06-05T16:05:37Z</time>
      </trkpt>
      <trkpt lat="43.33823" lon="2.29698">
        <ele>391.87</ele>
        <time>2014-06-05T16:05:53Z</time>
      </trkpt>
      <trkpt lat="43.33825" lon="2.29698">
        <ele>392.84</ele>
        <time>2014-06-05T16:05:55Z</time>
      </trkpt>
      <trkpt lat="43.33839" lon="2.29698">
        <ele>392.84</ele>
        <time>2014-06-05T16:06:12Z</time>
      </trkpt>
      <trkpt lat="43.33846" lon="2.29699">
        <ele>393.32</ele>
        <time>2014-06-05T16:06:27Z</time>
      </trkpt>
      <trkpt lat="43.33847" lon="2.29699">
        <ele>393.32</ele>
        <time>2014-06-05T16:06:47Z</time>
      </trkpt>
      <trkpt lat="43.33847" lon="2.29701">
        <ele>393.32</ele>
        <time>2014-06-05T16:07:07Z</time>
      </trkpt>
      <trkpt lat="43.33846" lon="2.29703">
        <ele>392.84</ele>
        <time>2014-06-05T16:07:45Z</time>
      </trkpt>
      <trkpt lat="43.33852" lon="2.297">
        <ele>394.28</ele>
        <time>2014-06-05T16:08:03Z</time>
      </trkpt>
      <trkpt lat="43.33872" lon="2.29701">
        <ele>395.24</ele>
        <time>2014-06-05T16:08:19Z</time>
      </trkpt>
      <trkpt lat="43.339" lon="2.29703">
        <ele>396.2</ele>
        <time>2014-06-05T16:08:41Z</time>
      </trkpt>
      <trkpt lat="43.33917" lon="2.29706">
        <ele>399.08</ele>
        <time>2014-06-05T16:08:56Z</time>
      </trkpt>
      <trkpt lat="43.33931" lon="2.29705">
        <ele>400.05</ele>
        <time>2014-06-05T16:09:13Z</time>
      </trkpt>
      <trkpt lat="43.33944" lon="2.29711">
        <ele>400.53</ele>
        <time>2014-06-05T16:09:26Z</time>
      </trkpt>
      <trkpt lat="43.33947" lon="2.29712">
        <ele>400.53</ele>
        <time>2014-06-05T16:09:28Z</time>
      </trkpt>
      <trkpt lat="43.3396" lon="2.29725">
        <ele>400.53</ele>
        <time>2014-06-05T16:09:45Z</time>
      </trkpt>
      <trkpt lat="43.33966" lon="2.29735">
        <ele>400.53</ele>
        <time>2014-06-05T16:09:56Z</time>
      </trkpt>
      <trkpt lat="43.33971" lon="2.29753">
        <ele>399.57</ele>
        <time>2014-06-05T16:10:11Z</time>
      </trkpt>
      <trkpt lat="43.33972" lon="2.29762">
        <ele>399.08</ele>
        <time>2014-06-05T16:10:17Z</time>
      </trkpt>
      <trkpt lat="43.3397" lon="2.29782">
        <ele>400.05</ele>
        <time>2014-06-05T16:10:32Z</time>
      </trkpt>
      <trkpt lat="43.33967" lon="2.29793">
        <ele>399.57</ele>
        <time>2014-06-05T16:10:40Z</time>
      </trkpt>
      <trkpt lat="43.33967" lon="2.29795">
        <ele>399.57</ele>
        <time>2014-06-05T16:10:42Z</time>
      </trkpt>
      <trkpt lat="43.33966" lon="2.29819">
        <ele>399.08</ele>
        <time>2014-06-05T16:10:59Z</time>
      </trkpt>
      <trkpt lat="43.33965" lon="2.29837">
        <ele>399.08</ele>
        <time>2014-06-05T16:11:13Z</time>
      </trkpt>
      <trkpt lat="43.33964" lon="2.29856">
        <ele>399.08</ele>
        <time>2014-06-05T16:11:30Z</time>
      </trkpt>
      <trkpt lat="43.33962" lon="2.29858">
        <ele>399.08</ele>
        <time>2014-06-05T16:11:44Z</time>
      </trkpt>
      <trkpt lat="43.3396" lon="2.29858">
        <ele>398.6</ele>
        <time>2014-06-05T16:12:13Z</time>
      </trkpt>
      <trkpt lat="43.3396" lon="2.29861">
        <ele>398.12</ele>
        <time>2014-06-05T16:12:29Z</time>
      </trkpt>
      <trkpt lat="43.33962" lon="2.29861">
        <ele>398.12</ele>
        <time>2014-06-05T16:12:40Z</time>
      </trkpt>
      <trkpt lat="43.33962" lon="2.29861">
        <ele>398.12</ele>
        <time>2014-06-05T16:12:41Z</time>
      </trkpt>
      <trkpt lat="43.33961" lon="2.29882">
        <ele>397.64</ele>
        <time>2014-06-05T16:12:53Z</time>
      </trkpt>
      <trkpt lat="43.33957" lon="2.29897">
        <ele>397.16</ele>
        <time>2014-06-05T16:13:02Z</time>
      </trkpt>
      <trkpt lat="43.33952" lon="2.29925">
        <ele>396.68</ele>
        <time>2014-06-05T16:13:17Z</time>
      </trkpt>
      <trkpt lat="43.33951" lon="2.29927">
        <ele>398.12</ele>
        <time>2014-06-05T16:13:18Z</time>
      </trkpt>
      <trkpt lat="43.33949" lon="2.29933">
        <ele>398.6</ele>
        <time>2014-06-05T16:13:21Z</time>
      </trkpt>
      <trkpt lat="43.33946" lon="2.29945">
        <ele>396.68</ele>
        <time>2014-06-05T16:13:27Z</time>
      </trkpt>
      <trkpt lat="43.33943" lon="2.29963">
        <ele>396.68</ele>
        <time>2014-06-05T16:13:37Z</time>
      </trkpt>
      <trkpt lat="43.33942" lon="2.29967">
        <ele>397.64</ele>
        <time>2014-06-05T16:13:39Z</time>
      </trkpt>
      <trkpt lat="43.33941" lon="2.29971">
        <ele>399.08</ele>
        <time>2014-06-05T16:13:41Z</time>
      </trkpt>
      <trkpt lat="43.33938" lon="2.30003">
        <ele>399.57</ele>
        <time>2014-06-05T16:13:58Z</time>
      </trkpt>
      <trkpt lat="43.33939" lon="2.30025">
        <ele>400.05</ele>
        <time>2014-06-05T16:14:12Z</time>
      </trkpt>
      <trkpt lat="43.33939" lon="2.30043">
        <ele>400.05</ele>
        <time>2014-06-05T16:14:28Z</time>
      </trkpt>
      <trkpt lat="43.3394" lon="2.30061">
        <ele>399.08</ele>
        <time>2014-06-05T16:14:44Z</time>
      </trkpt>
      <trkpt lat="43.33942" lon="2.30081">
        <ele>400.05</ele>
        <time>2014-06-05T16:14:59Z</time>
      </trkpt>
      <trkpt lat="43.33944" lon="2.30104">
        <ele>398.6</ele>
        <time>2014-06-05T16:15:14Z</time>
      </trkpt>
      <trkpt lat="43.33943" lon="2.30129">
        <ele>398.6</ele>
        <time>2014-06-05T16:15:29Z</time>
      </trkpt>
      <trkpt lat="43.33943" lon="2.30145">
        <ele>399.57</ele>
        <time>2014-06-05T16:15:39Z</time>
      </trkpt>
      <trkpt lat="43.33944" lon="2.30166">
        <ele>400.05</ele>
        <time>2014-06-05T16:15:55Z</time>
      </trkpt>
      <trkpt lat="43.33945" lon="2.30167">
        <ele>401.97</ele>
        <time>2014-06-05T16:15:59Z</time>
      </trkpt>
      <trkpt lat="43.33945" lon="2.30168">
        <ele>401.49</ele>
        <time>2014-06-05T16:16:01Z</time>
      </trkpt>
      <trkpt lat="43.33944" lon="2.3017">
        <ele>401.01</ele>
        <time>2014-06-05T16:16:16Z</time>
      </trkpt>
      <trkpt lat="43.33945" lon="2.30171">
        <ele>400.53</ele>
        <time>2014-06-05T16:16:38Z</time>
      </trkpt>
      <trkpt lat="43.33942" lon="2.30174">
        <ele>401.49</ele>
        <time>2014-06-05T16:17:05Z</time>
      </trkpt>
      <trkpt lat="43.33942" lon="2.30171">
        <ele>401.01</ele>
        <time>2014-06-05T16:17:18Z</time>
      </trkpt>
      <trkpt lat="43.33941" lon="2.30187">
        <ele>401.49</ele>
        <time>2014-06-05T16:17:31Z</time>
      </trkpt>
      <trkpt lat="43.3394" lon="2.30196">
        <ele>400.53</ele>
        <time>2014-06-05T16:17:36Z</time>
      </trkpt>
      <trkpt lat="43.33941" lon="2.30215">
        <ele>399.57</ele>
        <time>2014-06-05T16:17:46Z</time>
      </trkpt>
      <trkpt lat="43.33939" lon="2.30252">
        <ele>400.53</ele>
        <time>2014-06-05T16:18:04Z</time>
      </trkpt>
      <trkpt lat="43.33938" lon="2.30281">
        <ele>398.6</ele>
        <time>2014-06-05T16:18:19Z</time>
      </trkpt>
      <trkpt lat="43.33938" lon="2.30285">
        <ele>400.05</ele>
        <time>2014-06-05T16:18:21Z</time>
      </trkpt>
      <trkpt lat="43.33934" lon="2.30314">
        <ele>400.05</ele>
        <time>2014-06-05T16:18:37Z</time>
      </trkpt>
      <trkpt lat="43.3393" lon="2.30325">
        <ele>401.01</ele>
        <time>2014-06-05T16:18:44Z</time>
      </trkpt>
      <trkpt lat="43.33925" lon="2.30335">
        <ele>399.08</ele>
        <time>2014-06-05T16:18:52Z</time>
      </trkpt>
      <trkpt lat="43.33919" lon="2.30356">
        <ele>399.08</ele>
        <time>2014-06-05T16:19:08Z</time>
      </trkpt>
      <trkpt lat="43.33913" lon="2.30368">
        <ele>399.57</ele>
        <time>2014-06-05T16:19:16Z</time>
      </trkpt>
      <trkpt lat="43.33908" lon="2.30387">
        <ele>399.08</ele>
        <time>2014-06-05T16:19:28Z</time>
      </trkpt>
      <trkpt lat="43.33908" lon="2.30391">
        <ele>396.2</ele>
        <time>2014-06-05T16:19:31Z</time>
      </trkpt>
      <trkpt lat="43.33907" lon="2.30392">
        <ele>396.68</ele>
        <time>2014-06-05T16:19:32Z</time>
      </trkpt>
      <trkpt lat="43.33908" lon="2.30396">
        <ele>400.53</ele>
        <time>2014-06-05T16:19:37Z</time>
      </trkpt>
      <trkpt lat="43.33908" lon="2.30397">
        <ele>400.53</ele>
        <time>2014-06-05T16:19:38Z</time>
      </trkpt>
      <trkpt lat="43.33908" lon="2.30396">
        <ele>399.08</ele>
        <time>2014-06-05T16:19:41Z</time>
      </trkpt>
      <trkpt lat="43.33907" lon="2.30399">
        <ele>397.16</ele>
        <time>2014-06-05T16:19:45Z</time>
      </trkpt>
      <trkpt lat="43.33902" lon="2.30404">
        <ele>399.08</ele>
        <time>2014-06-05T16:20:02Z</time>
      </trkpt>
      <trkpt lat="43.33901" lon="2.30404">
        <ele>397.64</ele>
        <time>2014-06-05T16:20:07Z</time>
      </trkpt>
      <trkpt lat="43.33902" lon="2.30405">
        <ele>397.64</ele>
        <time>2014-06-05T16:20:33Z</time>
      </trkpt>
      <trkpt lat="43.339" lon="2.30404">
        <ele>398.12</ele>
        <time>2014-06-05T16:21:07Z</time>
      </trkpt>
      <trkpt lat="43.33903" lon="2.30405">
        <ele>398.12</ele>
        <time>2014-06-05T16:21:15Z</time>
      </trkpt>
      <trkpt lat="43.33903" lon="2.30412">
        <ele>398.6</ele>
        <time>2014-06-05T16:21:19Z</time>
      </trkpt>
      <trkpt lat="43.33903" lon="2.30414">
        <ele>399.08</ele>
        <time>2014-06-05T16:21:34Z</time>
      </trkpt>
      <trkpt lat="43.33901" lon="2.30415">
        <ele>399.08</ele>
        <time>2014-06-05T16:22:01Z</time>
      </trkpt>
      <trkpt lat="43.339" lon="2.30423">
        <ele>398.6</ele>
        <time>2014-06-05T16:22:21Z</time>
      </trkpt>
      <trkpt lat="43.33898" lon="2.3044">
        <ele>398.12</ele>
        <time>2014-06-05T16:22:34Z</time>
      </trkpt>
      <trkpt lat="43.33898" lon="2.30452">
        <ele>396.68</ele>
        <time>2014-06-05T16:22:43Z</time>
      </trkpt>
      <trkpt lat="43.33895" lon="2.30475">
        <ele>396.68</ele>
        <time>2014-06-05T16:22:59Z</time>
      </trkpt>
      <trkpt lat="43.33895" lon="2.30486">
        <ele>396.2</ele>
        <time>2014-06-05T16:23:12Z</time>
      </trkpt>
      <trkpt lat="43.33895" lon="2.30496">
        <ele>395.24</ele>
        <time>2014-06-05T16:23:26Z</time>
      </trkpt>
      <trkpt lat="43.33896" lon="2.30501">
        <ele>396.2</ele>
        <time>2014-06-05T16:23:38Z</time>
      </trkpt>
      <trkpt lat="43.33897" lon="2.30513">
        <ele>395.72</ele>
        <time>2014-06-05T16:23:52Z</time>
      </trkpt>
      <trkpt lat="43.33897" lon="2.30529">
        <ele>394.76</ele>
        <time>2014-06-05T16:24:07Z</time>
      </trkpt>
      <trkpt lat="43.33898" lon="2.30548">
        <ele>394.28</ele>
        <time>2014-06-05T16:24:19Z</time>
      </trkpt>
      <trkpt lat="43.33899" lon="2.30559">
        <ele>395.72</ele>
        <time>2014-06-05T16:24:26Z</time>
      </trkpt>
      <trkpt lat="43.33897" lon="2.30572">
        <ele>394.76</ele>
        <time>2014-06-05T16:24:34Z</time>
      </trkpt>
      <trkpt lat="43.33896" lon="2.30597">
        <ele>394.28</ele>
        <time>2014-06-05T16:24:50Z</time>
      </trkpt>
      <trkpt lat="43.33895" lon="2.30619">
        <ele>393.8</ele>
        <time>2014-06-05T16:25:04Z</time>
      </trkpt>
      <trkpt lat="43.33897" lon="2.30631">
        <ele>393.32</ele>
        <time>2014-06-05T16:25:18Z</time>
      </trkpt>
      <trkpt lat="43.33896" lon="2.3063">
        <ele>393.32</ele>
        <time>2014-06-05T16:25:45Z</time>
      </trkpt>
      <trkpt lat="43.33888" lon="2.30643">
        <ele>392.84</ele>
        <time>2014-06-05T16:26:10Z</time>
      </trkpt>
      <trkpt lat="43.33888" lon="2.30643">
        <ele>393.32</ele>
        <time>2014-06-05T16:26:11Z</time>
      </trkpt>
      <trkpt lat="43.33889" lon="2.30646">
        <ele>393.32</ele>
        <time>2014-06-05T16:26:15Z</time>
      </trkpt>
      <trkpt lat="43.33891" lon="2.30651">
        <ele>393.32</ele>
        <time>2014-06-05T16:26:18Z</time>
      </trkpt>
      <trkpt lat="43.33888" lon="2.30672">
        <ele>392.36</ele>
        <time>2014-06-05T16:26:33Z</time>
      </trkpt>
      <trkpt lat="43.33883" lon="2.30699">
        <ele>392.84</ele>
        <time>2014-06-05T16:26:49Z</time>
      </trkpt>
      <trkpt lat="43.33873" lon="2.30725">
        <ele>391.39</ele>
        <time>2014-06-05T16:27:06Z</time>
      </trkpt>
      <trkpt lat="43.33862" lon="2.30739">
        <ele>389.95</ele>
        <time>2014-06-05T16:27:22Z</time>
      </trkpt>
      <trkpt lat="43.33847" lon="2.3075">
        <ele>389.95</ele>
        <time>2014-06-05T16:27:37Z</time>
      </trkpt>
      <trkpt lat="43.33839" lon="2.30765">
        <ele>388.99</ele>
        <time>2014-06-05T16:27:52Z</time>
      </trkpt>
      <trkpt lat="43.33831" lon="2.30777">
        <ele>389.47</ele>
        <time>2014-06-05T16:28:04Z</time>
      </trkpt>
      <trkpt lat="43.33824" lon="2.30785">
        <ele>389.47</ele>
        <time>2014-06-05T16:28:15Z</time>
      </trkpt>
      <trkpt lat="43.33822" lon="2.3079">
        <ele>389.47</ele>
        <time>2014-06-05T16:28:20Z</time>
      </trkpt>
      <trkpt lat="43.33814" lon="2.30801">
        <ele>388.99</ele>
        <time>2014-06-05T16:28:33Z</time>
      </trkpt>
      <trkpt lat="43.33805" lon="2.30813">
        <ele>389.47</ele>
        <time>2014-06-05T16:28:47Z</time>
      </trkpt>
      <trkpt lat="43.33796" lon="2.30826">
        <ele>389.95</ele>
        <time>2014-06-05T16:29:01Z</time>
      </trkpt>
      <trkpt lat="43.33789" lon="2.30838">
        <ele>388.99</ele>
        <time>2014-06-05T16:29:14Z</time>
      </trkpt>
      <trkpt lat="43.3379" lon="2.30841">
        <ele>388.51</ele>
        <time>2014-06-05T16:29:26Z</time>
      </trkpt>
      <trkpt lat="43.33783" lon="2.30842">
        <ele>388.99</ele>
        <time>2014-06-05T16:29:42Z</time>
      </trkpt>
      <trkpt lat="43.33776" lon="2.30834">
        <ele>388.51</ele>
        <time>2014-06-05T16:30:05Z</time>
      </trkpt>
      <trkpt lat="43.33781" lon="2.30841">
        <ele>388.03</ele>
        <time>2014-06-05T16:30:28Z</time>
      </trkpt>
      <trkpt lat="43.33778" lon="2.30835">
        <ele>388.03</ele>
        <time>2014-06-05T16:30:56Z</time>
      </trkpt>
      <trkpt lat="43.33788" lon="2.30848">
        <ele>388.51</ele>
        <time>2014-06-05T16:31:19Z</time>
      </trkpt>
      <trkpt lat="43.33791" lon="2.30848">
        <ele>389.47</ele>
        <time>2014-06-05T16:31:50Z</time>
      </trkpt>
      <trkpt lat="43.33797" lon="2.30846">
        <ele>388.99</ele>
        <time>2014-06-05T16:32:12Z</time>
      </trkpt>
      <trkpt lat="43.33798" lon="2.30848">
        <ele>388.51</ele>
        <time>2014-06-05T16:32:37Z</time>
      </trkpt>
      <trkpt lat="43.33794" lon="2.30845">
        <ele>388.51</ele>
        <time>2014-06-05T16:33:07Z</time>
      </trkpt>
      <trkpt lat="43.33792" lon="2.30848">
        <ele>388.99</ele>
        <time>2014-06-05T16:33:49Z</time>
      </trkpt>
      <trkpt lat="43.33791" lon="2.30847">
        <ele>388.99</ele>
        <time>2014-06-05T16:34:23Z</time>
      </trkpt>
      <trkpt lat="43.33786" lon="2.30847">
        <ele>388.99</ele>
        <time>2014-06-05T16:35:01Z</time>
      </trkpt>
      <trkpt lat="43.33788" lon="2.30848">
        <ele>388.99</ele>
        <time>2014-06-05T16:35:38Z</time>
      </trkpt>
      <trkpt lat="43.33785" lon="2.30843">
        <ele>388.51</ele>
        <time>2014-06-05T16:35:59Z</time>
      </trkpt>
      <trkpt lat="43.33783" lon="2.30846">
        <ele>388.99</ele>
        <time>2014-06-05T16:36:16Z</time>
      </trkpt>
      <trkpt lat="43.33772" lon="2.30856">
        <ele>388.03</ele>
        <time>2014-06-05T16:36:33Z</time>
      </trkpt>
      <trkpt lat="43.33761" lon="2.30869">
        <ele>386.59</ele>
        <time>2014-06-05T16:36:50Z</time>
      </trkpt>
      <trkpt lat="43.33758" lon="2.30874">
        <ele>387.55</ele>
        <time>2014-06-05T16:37:04Z</time>
      </trkpt>
      <trkpt lat="43.33759" lon="2.30872">
        <ele>386.59</ele>
        <time>2014-06-05T16:37:06Z</time>
      </trkpt>
      <trkpt lat="43.33765" lon="2.30865">
        <ele>388.03</ele>
        <time>2014-06-05T16:37:20Z</time>
      </trkpt>
      <trkpt lat="43.33767" lon="2.30865">
        <ele>387.55</ele>
        <time>2014-06-05T16:37:36Z</time>
      </trkpt>
      <trkpt lat="43.33776" lon="2.30857">
        <ele>388.99</ele>
        <time>2014-06-05T16:37:48Z</time>
      </trkpt>
      <trkpt lat="43.33777" lon="2.30857">
        <ele>388.51</ele>
        <time>2014-06-05T16:37:49Z</time>
      </trkpt>
      <trkpt lat="43.33789" lon="2.30866">
        <ele>389.47</ele>
        <time>2014-06-05T16:38:04Z</time>
      </trkpt>
      <trkpt lat="43.33791" lon="2.30879">
        <ele>388.51</ele>
        <time>2014-06-05T16:38:18Z</time>
      </trkpt>
      <trkpt lat="43.33791" lon="2.30882">
        <ele>388.51</ele>
        <time>2014-06-05T16:38:20Z</time>
      </trkpt>
      <trkpt lat="43.3379" lon="2.30887">
        <ele>388.99</ele>
        <time>2014-06-05T16:38:24Z</time>
      </trkpt>
      <trkpt lat="43.33788" lon="2.30893">
        <ele>388.51</ele>
        <time>2014-06-05T16:38:28Z</time>
      </trkpt>
      <trkpt lat="43.33785" lon="2.30913">
        <ele>388.99</ele>
        <time>2014-06-05T16:38:44Z</time>
      </trkpt>
      <trkpt lat="43.33784" lon="2.30916">
        <ele>385.15</ele>
        <time>2014-06-05T16:38:46Z</time>
      </trkpt>
      <trkpt lat="43.33784" lon="2.30917">
        <ele>386.59</ele>
        <time>2014-06-05T16:38:47Z</time>
      </trkpt>
      <trkpt lat="43.33781" lon="2.30926">
        <ele>388.51</ele>
        <time>2014-06-05T16:38:59Z</time>
      </trkpt>
      <trkpt lat="43.33776" lon="2.30948">
        <ele>389.47</ele>
        <time>2014-06-05T16:39:15Z</time>
      </trkpt>
      <trkpt lat="43.33772" lon="2.30965">
        <ele>388.03</ele>
        <time>2014-06-05T16:39:29Z</time>
      </trkpt>
      <trkpt lat="43.33768" lon="2.30982">
        <ele>387.55</ele>
        <time>2014-06-05T16:39:43Z</time>
      </trkpt>
      <trkpt lat="43.33763" lon="2.31001">
        <ele>386.59</ele>
        <time>2014-06-05T16:40:00Z</time>
      </trkpt>
      <trkpt lat="43.3376" lon="2.31015">
        <ele>383.22</ele>
        <time>2014-06-05T16:40:13Z</time>
      </trkpt>
      <trkpt lat="43.33756" lon="2.31032">
        <ele>383.22</ele>
        <time>2014-06-05T16:40:25Z</time>
      </trkpt>
      <trkpt lat="43.33755" lon="2.31035">
        <ele>382.74</ele>
        <time>2014-06-05T16:40:27Z</time>
      </trkpt>
      <trkpt lat="43.33754" lon="2.31039">
        <ele>383.7</ele>
        <time>2014-06-05T16:40:30Z</time>
      </trkpt>
      <trkpt lat="43.33751" lon="2.31051">
        <ele>382.26</ele>
        <time>2014-06-05T16:40:39Z</time>
      </trkpt>
      <trkpt lat="43.33743" lon="2.31068">
        <ele>382.74</ele>
        <time>2014-06-05T16:40:54Z</time>
      </trkpt>
      <trkpt lat="43.3374" lon="2.31071">
        <ele>381.3</ele>
        <time>2014-06-05T16:40:57Z</time>
      </trkpt>
      <trkpt lat="43.33735" lon="2.3108">
        <ele>382.26</ele>
        <time>2014-06-05T16:41:05Z</time>
      </trkpt>
      <trkpt lat="43.33725" lon="2.31096">
        <ele>379.86</ele>
        <time>2014-06-05T16:41:21Z</time>
      </trkpt>
      <trkpt lat="43.33721" lon="2.31104">
        <ele>379.86</ele>
        <time>2014-06-05T16:41:37Z</time>
      </trkpt>
      <trkpt lat="43.33722" lon="2.31105">
        <ele>379.38</ele>
        <time>2014-06-05T16:41:55Z</time>
      </trkpt>
      <trkpt lat="43.33716" lon="2.31103">
        <ele>379.86</ele>
        <time>2014-06-05T16:42:16Z</time>
      </trkpt>
      <trkpt lat="43.33717" lon="2.31106">
        <ele>378.9</ele>
        <time>2014-06-05T16:42:22Z</time>
      </trkpt>
      <trkpt lat="43.33722" lon="2.31108">
        <ele>379.86</ele>
        <time>2014-06-05T16:42:38Z</time>
      </trkpt>
      <trkpt lat="43.33723" lon="2.31103">
        <ele>380.34</ele>
        <time>2014-06-05T16:42:48Z</time>
      </trkpt>
      <trkpt lat="43.33705" lon="2.31105">
        <ele>379.86</ele>
        <time>2014-06-05T16:43:05Z</time>
      </trkpt>
      <trkpt lat="43.33692" lon="2.31107">
        <ele>378.9</ele>
        <time>2014-06-05T16:43:20Z</time>
      </trkpt>
      <trkpt lat="43.3368" lon="2.31106">
        <ele>377.94</ele>
        <time>2014-06-05T16:43:36Z</time>
      </trkpt>
      <trkpt lat="43.33666" lon="2.31108">
        <ele>376.49</ele>
        <time>2014-06-05T16:43:53Z</time>
      </trkpt>
      <trkpt lat="43.33652" lon="2.31108">
        <ele>375.53</ele>
        <time>2014-06-05T16:44:09Z</time>
      </trkpt>
      <trkpt lat="43.33643" lon="2.31107">
        <ele>376.97</ele>
        <time>2014-06-05T16:44:23Z</time>
      </trkpt>
      <trkpt lat="43.33637" lon="2.31108">
        <ele>374.09</ele>
        <time>2014-06-05T16:44:29Z</time>
      </trkpt>
      <trkpt lat="43.33627" lon="2.31106">
        <ele>373.13</ele>
        <time>2014-06-05T16:44:43Z</time>
      </trkpt>
      <trkpt lat="43.33612" lon="2.31102">
        <ele>373.13</ele>
        <time>2014-06-05T16:45:00Z</time>
      </trkpt>
      <trkpt lat="43.336" lon="2.31105">
        <ele>372.65</ele>
        <time>2014-06-05T16:45:16Z</time>
      </trkpt>
      <trkpt lat="43.33594" lon="2.31107">
        <ele>371.21</ele>
        <time>2014-06-05T16:45:29Z</time>
      </trkpt>
      <trkpt lat="43.33584" lon="2.31116">
        <ele>370.73</ele>
        <time>2014-06-05T16:45:44Z</time>
      </trkpt>
      <trkpt lat="43.33577" lon="2.31121">
        <ele>371.21</ele>
        <time>2014-06-05T16:45:55Z</time>
      </trkpt>
      <trkpt lat="43.3357" lon="2.31129">
        <ele>370.24</ele>
        <time>2014-06-05T16:46:03Z</time>
      </trkpt>
      <trkpt lat="43.33563" lon="2.31152">
        <ele>369.28</ele>
        <time>2014-06-05T16:46:19Z</time>
      </trkpt>
      <trkpt lat="43.33561" lon="2.31163">
        <ele>368.8</ele>
        <time>2014-06-05T16:46:33Z</time>
      </trkpt>
      <trkpt lat="43.33555" lon="2.3118">
        <ele>368.32</ele>
        <time>2014-06-05T16:46:48Z</time>
      </trkpt>
      <trkpt lat="43.33548" lon="2.31195">
        <ele>367.84</ele>
        <time>2014-06-05T16:47:02Z</time>
      </trkpt>
      <trkpt lat="43.33542" lon="2.31199">
        <ele>367.36</ele>
        <time>2014-06-05T16:47:15Z</time>
      </trkpt>
      <trkpt lat="43.33541" lon="2.31198">
        <ele>367.84</ele>
        <time>2014-06-05T16:47:20Z</time>
      </trkpt>
      <trkpt lat="43.33527" lon="2.31194">
        <ele>366.4</ele>
        <time>2014-06-05T16:47:38Z</time>
      </trkpt>
      <trkpt lat="43.33524" lon="2.31203">
        <ele>365.92</ele>
        <time>2014-06-05T16:47:46Z</time>
      </trkpt>
      <trkpt lat="43.33522" lon="2.31209">
        <ele>365.92</ele>
        <time>2014-06-05T16:47:50Z</time>
      </trkpt>
      <trkpt lat="43.33519" lon="2.31224">
        <ele>364.48</ele>
        <time>2014-06-05T16:48:04Z</time>
      </trkpt>
      <trkpt lat="43.33511" lon="2.31227">
        <ele>364.96</ele>
        <time>2014-06-05T16:48:11Z</time>
      </trkpt>
      <trkpt lat="43.33506" lon="2.31226">
        <ele>364.96</ele>
        <time>2014-06-05T16:48:25Z</time>
      </trkpt>
      <trkpt lat="43.3351" lon="2.3123">
        <ele>365.44</ele>
        <time>2014-06-05T16:48:58Z</time>
      </trkpt>
    </trkseg>
  </trk>
</gpx>